<?xml version='1.0' encoding='UTF-8'?><gpx version="1.1" creator="JPX - https://github.com/jenetics/jpx" xmlns="http://www.topografix.com/GPX/1/1"><trk><trkseg><trkpt lat="43.629927702256694" lon="11.317375042280103"><ele>360.0</ele><time>2026-04-23T17:59:08.999Z</time></trkpt><trkpt lat="43.62990307106052" lon="11.31750237812964"><ele>360.0</ele><time>2026-04-23T17:59:12.999Z</time></trkpt><trkpt lat="43.629819188558145" lon="11.317595240529611"><ele>360.0</ele><time>2026-04-23T17:59:14.999Z</time></trkpt><trkpt lat="43.62974555137878" lon="11.317651719120079"><ele>360.0</ele><time>2026-04-23T17:59:15.999Z</time></trkpt><trkpt lat="43.62965102375801" lon="11.31768868270249"><ele>360.0</ele><time>2026-04-23T17:59:16.999Z</time></trkpt><trkpt lat="43.62956910260406" lon="11.31771200544877"><ele>360.0</ele><time>2026-04-23T17:59:17.999Z</time></trkpt><trkpt lat="43.62948445033735" lon="11.31771107778127"><ele>360.0</ele><time>2026-04-23T17:59:18.999Z</time></trkpt><trkpt lat="43.62941522003677" lon="11.317667949595084"><ele>360.0</ele><time>2026-04-23T17:59:19.999Z</time></trkpt><trkpt lat="43.62933845548479" lon="11.317616569058332"><ele>360.0</ele><time>2026-04-23T17:59:20.999Z</time></trkpt><trkpt lat="43.62925062010505" lon="11.31757828954011"><ele>360.0</ele><time>2026-04-23T17:59:21.999Z</time></trkpt><trkpt lat="43.62917417216487" lon="11.317548872599465"><ele>360.0</ele><time>2026-04-23T17:59:22.999Z</time></trkpt><trkpt lat="43.629094001599874" lon="11.317548590529114"><ele>359.1666666666667</ele><time>2026-04-23T17:59:23.999Z</time></trkpt><trkpt lat="43.62900953941592" lon="11.317560195872876"><ele>358.3333333333333</ele><time>2026-04-23T17:59:24.999Z</time></trkpt><trkpt lat="43.62892544194638" lon="11.31759497968171"><ele>357.5</ele><time>2026-04-23T17:59:25.999Z</time></trkpt><trkpt lat="43.628844734191226" lon="11.317647033460531"><ele>356.66666666666663</ele><time>2026-04-23T17:59:26.999Z</time></trkpt><trkpt lat="43.62877577008608" lon="11.31771157461179"><ele>355.8333333333333</ele><time>2026-04-23T17:59:27.999Z</time></trkpt><trkpt lat="43.62871948583619" lon="11.317800276056344"><ele>355.0</ele><time>2026-04-23T17:59:28.999Z</time></trkpt><trkpt lat="43.628676574718334" lon="11.317899345059447"><ele>355.0</ele><time>2026-04-23T17:59:29.999Z</time></trkpt><trkpt lat="43.62864316923058" lon="11.317992164120431"><ele>355.0</ele><time>2026-04-23T17:59:30.999Z</time></trkpt><trkpt lat="43.628658268753426" lon="11.318089198983403"><ele>355.0</ele><time>2026-04-23T17:59:31.999Z</time></trkpt><trkpt lat="43.62866963178832" lon="11.318189684096392"><ele>355.0</ele><time>2026-04-23T17:59:32.999Z</time></trkpt><trkpt lat="43.6287040481731" lon="11.31830865886396"><ele>355.0</ele><time>2026-04-23T17:59:33.999Z</time></trkpt><trkpt lat="43.628741527364234" lon="11.318433703309994"><ele>355.0</ele><time>2026-04-23T17:59:34.999Z</time></trkpt><trkpt lat="43.62879762032361" lon="11.318550302085693"><ele>358.25</ele><time>2026-04-23T17:59:35.999Z</time></trkpt><trkpt lat="43.62884211758776" lon="11.318688559970214"><ele>361.5</ele><time>2026-04-23T17:59:36.999Z</time></trkpt><trkpt lat="43.628871699855004" lon="11.318850547929694"><ele>364.75</ele><time>2026-04-23T17:59:37.999Z</time></trkpt><trkpt lat="43.62890103039712" lon="11.319025272739458"><ele>368.0</ele><time>2026-04-23T17:59:38.999Z</time></trkpt><trkpt lat="43.62893618589207" lon="11.319157456255795"><ele>369.0</ele><time>2026-04-23T17:59:39.999Z</time></trkpt><trkpt lat="43.62896906653916" lon="11.31927898268984"><ele>370.0</ele><time>2026-04-23T17:59:40.999Z</time></trkpt><trkpt lat="43.62900643483525" lon="11.31940514519745"><ele>371.0</ele><time>2026-04-23T17:59:41.999Z</time></trkpt><trkpt lat="43.629025354019596" lon="11.319527229927463"><ele>372.0</ele><time>2026-04-23T17:59:42.999Z</time></trkpt><trkpt lat="43.62903247265181" lon="11.319654550838752"><ele>373.0</ele><time>2026-04-23T17:59:43.999Z</time></trkpt><trkpt lat="43.62903261188913" lon="11.31974992117252"><ele>374.0</ele><time>2026-04-23T17:59:44.999Z</time></trkpt><trkpt lat="43.629012742851025" lon="11.319833205687813"><ele>373.83333333333337</ele><time>2026-04-23T17:59:45.999Z</time></trkpt><trkpt lat="43.62893301250764" lon="11.319922912830158"><ele>373.6666666666667</ele><time>2026-04-23T17:59:47.999Z</time></trkpt><trkpt lat="43.6288644560549" lon="11.319923640560399"><ele>373.5</ele><time>2026-04-23T17:59:48.999Z</time></trkpt><trkpt lat="43.62878868419934" lon="11.319883008474733"><ele>373.3333333333333</ele><time>2026-04-23T17:59:49.999Z</time></trkpt><trkpt lat="43.628698445121316" lon="11.319851113899547"><ele>373.16666666666663</ele><time>2026-04-23T17:59:50.999Z</time></trkpt><trkpt lat="43.628600507198755" lon="11.31983093306049"><ele>373.0</ele><time>2026-04-23T17:59:51.999Z</time></trkpt><trkpt lat="43.628488404655705" lon="11.319824505961547"><ele>373.0</ele><time>2026-04-23T17:59:52.999Z</time></trkpt><trkpt lat="43.628384818239354" lon="11.319823582076388"><ele>373.0</ele><time>2026-04-23T17:59:53.999Z</time></trkpt><trkpt lat="43.62831306233697" lon="11.319842117786203"><ele>373.0</ele><time>2026-04-23T17:59:54.999Z</time></trkpt><trkpt lat="43.62825411297911" lon="11.319891255952937"><ele>373.0</ele><time>2026-04-23T17:59:55.999Z</time></trkpt><trkpt lat="43.62821270837959" lon="11.319969188600451"><ele>373.0</ele><time>2026-04-23T17:59:56.999Z</time></trkpt><trkpt lat="43.628178235728335" lon="11.3200714416361"><ele>373.0</ele><time>2026-04-23T17:59:57.999Z</time></trkpt><trkpt lat="43.62815587055194" lon="11.320202909608238"><ele>373.0</ele><time>2026-04-23T17:59:58.999Z</time></trkpt><trkpt lat="43.62815526056766" lon="11.320369608898323"><ele>373.0</ele><time>2026-04-23T17:59:59.999Z</time></trkpt><trkpt lat="43.62812606707897" lon="11.32050291755207"><ele>373.0</ele><time>2026-04-23T18:00:00.999Z</time></trkpt><trkpt lat="43.62809252960278" lon="11.320605575310092"><ele>373.0</ele><time>2026-04-23T18:00:01.999Z</time></trkpt><trkpt lat="43.62804778303206" lon="11.320687151288945"><ele>373.0</ele><time>2026-04-23T18:00:02.999Z</time></trkpt><trkpt lat="43.62799250374944" lon="11.320789962340847"><ele>372.3333333333333</ele><time>2026-04-23T18:00:03.999Z</time></trkpt><trkpt lat="43.6279454458867" lon="11.320943883567606"><ele>371.66666666666663</ele><time>2026-04-23T18:00:04.999Z</time></trkpt><trkpt lat="43.62791668152672" lon="11.321060031018945"><ele>371.0</ele><time>2026-04-23T18:00:05.999Z</time></trkpt><trkpt lat="43.62788374693384" lon="11.32115634847611"><ele>370.3333333333333</ele><time>2026-04-23T18:00:06.999Z</time></trkpt><trkpt lat="43.62784520665401" lon="11.321251262639276"><ele>369.6666666666667</ele><time>2026-04-23T18:00:07.999Z</time></trkpt><trkpt lat="43.62779351481536" lon="11.321323451298477"><ele>369.0</ele><time>2026-04-23T18:00:08.999Z</time></trkpt><trkpt lat="43.62771200783883" lon="11.321362386989147"><ele>369.0</ele><time>2026-04-23T18:00:09.999Z</time></trkpt><trkpt lat="43.6276451316906" lon="11.321361483633735"><ele>369.0</ele><time>2026-04-23T18:00:10.999Z</time></trkpt><trkpt lat="43.62756883600392" lon="11.321333459849807"><ele>369.0</ele><time>2026-04-23T18:00:11.999Z</time></trkpt><trkpt lat="43.6274916459255" lon="11.321248923425475"><ele>369.0</ele><time>2026-04-23T18:00:12.999Z</time></trkpt><trkpt lat="43.62741062386816" lon="11.321149503811565"><ele>369.0</ele><time>2026-04-23T18:00:13.999Z</time></trkpt><trkpt lat="43.62732338842337" lon="11.321091431282706"><ele>369.0</ele><time>2026-04-23T18:00:14.999Z</time></trkpt><trkpt lat="43.62726874481113" lon="11.321041182719714"><ele>369.0</ele><time>2026-04-23T18:00:15.999Z</time></trkpt><trkpt lat="43.62717877264572" lon="11.321018318378053"><ele>369.0</ele><time>2026-04-23T18:00:17.999Z</time></trkpt><trkpt lat="43.62714876359918" lon="11.321104257146663"><ele>369.0</ele><time>2026-04-23T18:00:18.999Z</time></trkpt><trkpt lat="43.627135570556106" lon="11.32119164726551"><ele>369.0</ele><time>2026-04-23T18:00:19.999Z</time></trkpt><trkpt lat="43.62712593609374" lon="11.321313026213867"><ele>369.0</ele><time>2026-04-23T18:00:20.999Z</time></trkpt><trkpt lat="43.6271114725788" lon="11.321473114281366"><ele>370.4</ele><time>2026-04-23T18:00:22Z</time></trkpt><trkpt lat="43.62710796438092" lon="11.321633807807306"><ele>371.79999999999995</ele><time>2026-04-23T18:00:23Z</time></trkpt><trkpt lat="43.62710573401141" lon="11.321735970305042"><ele>373.20000000000005</ele><time>2026-04-23T18:00:24Z</time></trkpt><trkpt lat="43.6270792925135" lon="11.321871670537707"><ele>374.6</ele><time>2026-04-23T18:00:26Z</time></trkpt><trkpt lat="43.62698025934438" lon="11.321841637266326"><ele>376.0</ele><time>2026-04-23T18:00:28Z</time></trkpt><trkpt lat="43.626918588296796" lon="11.321759363906615"><ele>376.0</ele><time>2026-04-23T18:00:29Z</time></trkpt><trkpt lat="43.62684065468066" lon="11.321648450104822"><ele>376.0</ele><time>2026-04-23T18:00:30Z</time></trkpt><trkpt lat="43.62675996964424" lon="11.321533599895671"><ele>376.0</ele><time>2026-04-23T18:00:31Z</time></trkpt><trkpt lat="43.626685754632135" lon="11.321420772690752"><ele>376.0</ele><time>2026-04-23T18:00:32Z</time></trkpt><trkpt lat="43.626618745212944" lon="11.321304414967774"><ele>376.0</ele><time>2026-04-23T18:00:33Z</time></trkpt><trkpt lat="43.62657050477946" lon="11.32117765577842"><ele>373.5</ele><time>2026-04-23T18:00:34Z</time></trkpt><trkpt lat="43.626517452498916" lon="11.321027720903647"><ele>371.0</ele><time>2026-04-23T18:00:35Z</time></trkpt><trkpt lat="43.626451937131414" lon="11.3208825397847"><ele>368.5</ele><time>2026-04-23T18:00:36Z</time></trkpt><trkpt lat="43.62636131283147" lon="11.32071165742886"><ele>366.0</ele><time>2026-04-23T18:00:37Z</time></trkpt><trkpt lat="43.626287068046494" lon="11.320535227755844"><ele>365.20000000000005</ele><time>2026-04-23T18:00:38Z</time></trkpt><trkpt lat="43.6262368776349" lon="11.320356707319533"><ele>364.40000000000003</ele><time>2026-04-23T18:00:39Z</time></trkpt><trkpt lat="43.62618284285726" lon="11.320215756646446"><ele>363.6</ele><time>2026-04-23T18:00:40Z</time></trkpt><trkpt lat="43.62612688541515" lon="11.320098371601937"><ele>362.8</ele><time>2026-04-23T18:00:41Z</time></trkpt><trkpt lat="43.626078045280806" lon="11.319995430615553"><ele>362.0</ele><time>2026-04-23T18:00:42Z</time></trkpt><trkpt lat="43.62604327388499" lon="11.319903233691326"><ele>362.0</ele><time>2026-04-23T18:00:43Z</time></trkpt><trkpt lat="43.625991670062525" lon="11.319847539934221"><ele>362.0</ele><time>2026-04-23T18:00:44Z</time></trkpt><trkpt lat="43.62593066178928" lon="11.319814123902914"><ele>362.0</ele><time>2026-04-23T18:00:45Z</time></trkpt><trkpt lat="43.62586478194781" lon="11.319796595817968"><ele>362.0</ele><time>2026-04-23T18:00:46Z</time></trkpt><trkpt lat="43.625798120147316" lon="11.319807907646744"><ele>362.0</ele><time>2026-04-23T18:00:47Z</time></trkpt><trkpt lat="43.62573604109126" lon="11.319853642688821"><ele>362.0</ele><time>2026-04-23T18:00:48Z</time></trkpt><trkpt lat="43.62567526310836" lon="11.319899941999788"><ele>362.0</ele><time>2026-04-23T18:00:49Z</time></trkpt><trkpt lat="43.6256065991816" lon="11.320010150360996"><ele>362.0</ele><time>2026-04-23T18:00:50Z</time></trkpt><trkpt lat="43.62556723071622" lon="11.320154254837428"><ele>362.0</ele><time>2026-04-23T18:00:51Z</time></trkpt><trkpt lat="43.62553995310371" lon="11.320270056980187"><ele>362.0</ele><time>2026-04-23T18:00:52Z</time></trkpt><trkpt lat="43.62550427393984" lon="11.320431160251198"><ele>362.0</ele><time>2026-04-23T18:00:53Z</time></trkpt><trkpt lat="43.625472939216976" lon="11.320575009122713"><ele>362.0</ele><time>2026-04-23T18:00:54Z</time></trkpt><trkpt lat="43.625442590132565" lon="11.320706249701198"><ele>360.8</ele><time>2026-04-23T18:00:55Z</time></trkpt><trkpt lat="43.625407739939604" lon="11.320828651178832"><ele>359.6</ele><time>2026-04-23T18:00:56Z</time></trkpt><trkpt lat="43.62536176431061" lon="11.320960709018172"><ele>358.40000000000003</ele><time>2026-04-23T18:00:57Z</time></trkpt><trkpt lat="43.625305863827364" lon="11.321097350858812"><ele>357.20000000000005</ele><time>2026-04-23T18:00:58Z</time></trkpt><trkpt lat="43.625256603417206" lon="11.321223022015545"><ele>356.0</ele><time>2026-04-23T18:00:59Z</time></trkpt><trkpt lat="43.62522307880411" lon="11.32134530777634"><ele>357.5</ele><time>2026-04-23T18:01:00Z</time></trkpt><trkpt lat="43.62522062879382" lon="11.321479292636965"><ele>359.0</ele><time>2026-04-23T18:01:01Z</time></trkpt><trkpt lat="43.6252106245903" lon="11.32159526754317"><ele>360.5</ele><time>2026-04-23T18:01:02Z</time></trkpt><trkpt lat="43.62519535647526" lon="11.321718992800857"><ele>362.0</ele><time>2026-04-23T18:01:03Z</time></trkpt><trkpt lat="43.62519899519015" lon="11.321828878063469"><ele>363.5</ele><time>2026-04-23T18:01:04Z</time></trkpt><trkpt lat="43.62522307338615" lon="11.321956578108038"><ele>365.0</ele><time>2026-04-23T18:01:05Z</time></trkpt><trkpt lat="43.62524953058572" lon="11.322052853501093"><ele>365.0</ele><time>2026-04-23T18:01:06Z</time></trkpt><trkpt lat="43.62527610155843" lon="11.322191103597344"><ele>365.0</ele><time>2026-04-23T18:01:08Z</time></trkpt><trkpt lat="43.62518199000196" lon="11.32222604148423"><ele>365.0</ele><time>2026-04-23T18:01:09.999Z</time></trkpt><trkpt lat="43.62511833420668" lon="11.322171051093909"><ele>365.0</ele><time>2026-04-23T18:01:10.999Z</time></trkpt><trkpt lat="43.62503481388268" lon="11.322101788592448"><ele>365.0</ele><time>2026-04-23T18:01:11.999Z</time></trkpt><trkpt lat="43.62495555260768" lon="11.322018478712213"><ele>365.0</ele><time>2026-04-23T18:01:12.999Z</time></trkpt><trkpt lat="43.62490773330783" lon="11.321888364377537"><ele>365.0</ele><time>2026-04-23T18:01:13.999Z</time></trkpt><trkpt lat="43.62486463933335" lon="11.3217473228976"><ele>365.0</ele><time>2026-04-23T18:01:14.999Z</time></trkpt><trkpt lat="43.624815961985135" lon="11.321598905562228"><ele>365.0</ele><time>2026-04-23T18:01:15.999Z</time></trkpt><trkpt lat="43.624763231699674" lon="11.321445705238341"><ele>362.75</ele><time>2026-04-23T18:01:16.999Z</time></trkpt><trkpt lat="43.62470418877737" lon="11.321279717218228"><ele>360.5</ele><time>2026-04-23T18:01:17.999Z</time></trkpt><trkpt lat="43.62464262066647" lon="11.321105073664956"><ele>358.25</ele><time>2026-04-23T18:01:18.999Z</time></trkpt><trkpt lat="43.62458261898906" lon="11.320951330118387"><ele>356.0</ele><time>2026-04-23T18:01:19.999Z</time></trkpt><trkpt lat="43.62453169556858" lon="11.320818032336824"><ele>356.0</ele><time>2026-04-23T18:01:20.999Z</time></trkpt><trkpt lat="43.624482807161925" lon="11.320689882636609"><ele>356.0</ele><time>2026-04-23T18:01:21.999Z</time></trkpt><trkpt lat="43.62443869008497" lon="11.320559552265319"><ele>356.0</ele><time>2026-04-23T18:01:22.999Z</time></trkpt><trkpt lat="43.62439222327877" lon="11.32044127986762"><ele>356.0</ele><time>2026-04-23T18:01:23.999Z</time></trkpt><trkpt lat="43.6243510008145" lon="11.320320275833492"><ele>356.0</ele><time>2026-04-23T18:01:24.999Z</time></trkpt><trkpt lat="43.62432774392531" lon="11.320196528801825"><ele>355.33333333333337</ele><time>2026-04-23T18:01:25.999Z</time></trkpt><trkpt lat="43.62430905339875" lon="11.320066539985392"><ele>354.6666666666667</ele><time>2026-04-23T18:01:26.999Z</time></trkpt><trkpt lat="43.6243041134886" lon="11.319944154029612"><ele>354.0</ele><time>2026-04-23T18:01:27.999Z</time></trkpt><trkpt lat="43.62428954578116" lon="11.319837996966243"><ele>353.3333333333333</ele><time>2026-04-23T18:01:28.999Z</time></trkpt><trkpt lat="43.62427696227353" lon="11.319722059215692"><ele>352.66666666666663</ele><time>2026-04-23T18:01:29.999Z</time></trkpt><trkpt lat="43.62427061627075" lon="11.319627112386826"><ele>352.0</ele><time>2026-04-23T18:01:30.999Z</time></trkpt><trkpt lat="43.62423272904871" lon="11.319484690314148"><ele>349.0</ele><time>2026-04-23T18:01:32.999Z</time></trkpt><trkpt lat="43.62414228019259" lon="11.319405261659071"><ele>346.0</ele><time>2026-04-23T18:01:34.999Z</time></trkpt><trkpt lat="43.62402089996356" lon="11.319412197052712"><ele>343.0</ele><time>2026-04-23T18:01:36.999Z</time></trkpt><trkpt lat="43.62392024793403" lon="11.319504074673217"><ele>340.0</ele><time>2026-04-23T18:01:38.999Z</time></trkpt><trkpt lat="43.62384702337746" lon="11.319570227481915"><ele>337.0</ele><time>2026-04-23T18:01:39.999Z</time></trkpt><trkpt lat="43.6237788392922" lon="11.31965934307503"><ele>338.0</ele><time>2026-04-23T18:01:40.999Z</time></trkpt><trkpt lat="43.62371237756176" lon="11.319740902262305"><ele>339.0</ele><time>2026-04-23T18:01:41.999Z</time></trkpt><trkpt lat="43.62365037470895" lon="11.319798502926727"><ele>340.0</ele><time>2026-04-23T18:01:42.999Z</time></trkpt><trkpt lat="43.623557174117074" lon="11.319806754256062"><ele>341.0</ele><time>2026-04-23T18:01:43.999Z</time></trkpt><trkpt lat="43.623469193215755" lon="11.319792930350278"><ele>342.0</ele><time>2026-04-23T18:01:44.999Z</time></trkpt><trkpt lat="43.62335593721847" lon="11.31978074335804"><ele>342.0</ele><time>2026-04-23T18:01:45.999Z</time></trkpt><trkpt lat="43.62326436940711" lon="11.319757515129428"><ele>342.0</ele><time>2026-04-23T18:01:46.999Z</time></trkpt><trkpt lat="43.62318507612427" lon="11.31971402658457"><ele>342.0</ele><time>2026-04-23T18:01:47.999Z</time></trkpt><trkpt lat="43.62312132830136" lon="11.319696033373583"><ele>342.0</ele><time>2026-04-23T18:01:48.999Z</time></trkpt><trkpt lat="43.62306106956591" lon="11.319650679346305"><ele>342.0</ele><time>2026-04-23T18:01:49.999Z</time></trkpt><trkpt lat="43.62301285933234" lon="11.319569776708828"><ele>342.0</ele><time>2026-04-23T18:01:50.999Z</time></trkpt><trkpt lat="43.62292345440314" lon="11.319451110301534"><ele>339.0</ele><time>2026-04-23T18:01:52.999Z</time></trkpt><trkpt lat="43.62283193450324" lon="11.319407165641522"><ele>336.0</ele><time>2026-04-23T18:01:54.999Z</time></trkpt><trkpt lat="43.62272092791713" lon="11.319459544699702"><ele>333.0</ele><time>2026-04-23T18:01:56.999Z</time></trkpt><trkpt lat="43.62267043024736" lon="11.31956337339319"><ele>330.0</ele><time>2026-04-23T18:01:57.999Z</time></trkpt><trkpt lat="43.62262298554782" lon="11.319648342705932"><ele>327.0</ele><time>2026-04-23T18:01:58.999Z</time></trkpt><trkpt lat="43.62257732420988" lon="11.319781349121403"><ele>327.0</ele><time>2026-04-23T18:01:59.999Z</time></trkpt><trkpt lat="43.622526674060026" lon="11.319938261356533"><ele>327.0</ele><time>2026-04-23T18:02:00.999Z</time></trkpt><trkpt lat="43.622491067887914" lon="11.320080608661744"><ele>327.0</ele><time>2026-04-23T18:02:01.999Z</time></trkpt><trkpt lat="43.6224630436154" lon="11.32021211866989"><ele>327.0</ele><time>2026-04-23T18:02:02.999Z</time></trkpt><trkpt lat="43.622436893088846" lon="11.320334835709753"><ele>327.0</ele><time>2026-04-23T18:02:03.999Z</time></trkpt><trkpt lat="43.622403664634525" lon="11.320455824293502"><ele>328.8</ele><time>2026-04-23T18:02:04.999Z</time></trkpt><trkpt lat="43.622372503453406" lon="11.320583439605818"><ele>330.6</ele><time>2026-04-23T18:02:05.999Z</time></trkpt><trkpt lat="43.62230835941646" lon="11.320698775791339"><ele>332.40000000000003</ele><time>2026-04-23T18:02:06.999Z</time></trkpt><trkpt lat="43.62225447537088" lon="11.320811346776761"><ele>334.20000000000005</ele><time>2026-04-23T18:02:07.999Z</time></trkpt><trkpt lat="43.622203178622" lon="11.32090920036543"><ele>336.0</ele><time>2026-04-23T18:02:08.999Z</time></trkpt><trkpt lat="43.622157343807146" lon="11.320986921288494"><ele>336.0</ele><time>2026-04-23T18:02:09.999Z</time></trkpt><trkpt lat="43.62210303556003" lon="11.321064038516607"><ele>336.0</ele><time>2026-04-23T18:02:10.999Z</time></trkpt><trkpt lat="43.62202804711667" lon="11.321138244774207"><ele>336.0</ele><time>2026-04-23T18:02:11.999Z</time></trkpt><trkpt lat="43.621946471284986" lon="11.321199071958901"><ele>336.0</ele><time>2026-04-23T18:02:12.999Z</time></trkpt><trkpt lat="43.621875978364805" lon="11.32126217935576"><ele>336.0</ele><time>2026-04-23T18:02:13.999Z</time></trkpt><trkpt lat="43.62177116639786" lon="11.321266757405525"><ele>335.8333333333333</ele><time>2026-04-23T18:02:15.999Z</time></trkpt><trkpt lat="43.621699210473246" lon="11.32111635375961"><ele>335.6666666666667</ele><time>2026-04-23T18:02:17.999Z</time></trkpt><trkpt lat="43.62167523764834" lon="11.32100125547835"><ele>335.5</ele><time>2026-04-23T18:02:18.999Z</time></trkpt><trkpt lat="43.62165832349883" lon="11.320882527975604"><ele>335.33333333333337</ele><time>2026-04-23T18:02:19.999Z</time></trkpt><trkpt lat="43.621631003910636" lon="11.320796179523988"><ele>335.1666666666667</ele><time>2026-04-23T18:02:20.999Z</time></trkpt><trkpt lat="43.62158597625306" lon="11.320719378066107"><ele>335.0</ele><time>2026-04-23T18:02:21.999Z</time></trkpt><trkpt lat="43.62152002418469" lon="11.320666319953618"><ele>335.0</ele><time>2026-04-23T18:02:22.999Z</time></trkpt><trkpt lat="43.62144691323013" lon="11.320647867684203"><ele>335.0</ele><time>2026-04-23T18:02:23.999Z</time></trkpt><trkpt lat="43.62136139611688" lon="11.320663866967974"><ele>335.0</ele><time>2026-04-23T18:02:24.999Z</time></trkpt><trkpt lat="43.621270435966366" lon="11.320680178241544"><ele>335.0</ele><time>2026-04-23T18:02:25.999Z</time></trkpt><trkpt lat="43.62116514858108" lon="11.320707182383362"><ele>335.0</ele><time>2026-04-23T18:02:27Z</time></trkpt><trkpt lat="43.62106903056943" lon="11.320724535574458"><ele>338.0</ele><time>2026-04-23T18:02:28Z</time></trkpt><trkpt lat="43.620978379957414" lon="11.320743945184532"><ele>341.0</ele><time>2026-04-23T18:02:29Z</time></trkpt><trkpt lat="43.62087930205858" lon="11.3207497624548"><ele>344.0</ele><time>2026-04-23T18:02:30Z</time></trkpt><trkpt lat="43.6207777115032" lon="11.320786491960416"><ele>347.0</ele><time>2026-04-23T18:02:31Z</time></trkpt><trkpt lat="43.6206802140707" lon="11.320831640019302"><ele>350.0</ele><time>2026-04-23T18:02:32Z</time></trkpt><trkpt lat="43.62059458203685" lon="11.320882842218587"><ele>350.0</ele><time>2026-04-23T18:02:33Z</time></trkpt><trkpt lat="43.62050964721281" lon="11.320939328086165"><ele>350.0</ele><time>2026-04-23T18:02:34Z</time></trkpt><trkpt lat="43.62041773939202" lon="11.320984549810087"><ele>350.0</ele><time>2026-04-23T18:02:35Z</time></trkpt><trkpt lat="43.62032643428498" lon="11.321029017556882"><ele>350.0</ele><time>2026-04-23T18:02:36Z</time></trkpt><trkpt lat="43.62024034250662" lon="11.321074236286105"><ele>350.0</ele><time>2026-04-23T18:02:37Z</time></trkpt><trkpt lat="43.62018153063721" lon="11.321107241260883"><ele>350.0</ele><time>2026-04-23T18:02:38Z</time></trkpt><trkpt lat="43.62008865386614" lon="11.321145925883679"><ele>351.6</ele><time>2026-04-23T18:02:40Z</time></trkpt><trkpt lat="43.62004746938494" lon="11.321374960118765"><ele>353.2</ele><time>2026-04-23T18:02:42Z</time></trkpt><trkpt lat="43.620097042746615" lon="11.321492161849191"><ele>354.79999999999995</ele><time>2026-04-23T18:02:43Z</time></trkpt><trkpt lat="43.62014452926356" lon="11.321609157816098"><ele>356.4</ele><time>2026-04-23T18:02:44Z</time></trkpt><trkpt lat="43.62018194869445" lon="11.321706523053818"><ele>358.0</ele><time>2026-04-23T18:02:45Z</time></trkpt><trkpt lat="43.62020931730347" lon="11.321794856624878"><ele>358.00000000000006</ele><time>2026-04-23T18:02:46Z</time></trkpt><trkpt lat="43.620226317565454" lon="11.321895356879347"><ele>358.0</ele><time>2026-04-23T18:02:47Z</time></trkpt><trkpt lat="43.620243711638835" lon="11.321985522162613"><ele>358.0</ele><time>2026-04-23T18:02:48Z</time></trkpt><trkpt lat="43.62026882740921" lon="11.322098220165735"><ele>358.0</ele><time>2026-04-23T18:02:49Z</time></trkpt><trkpt lat="43.62028839468004" lon="11.322186022782635"><ele>358.0</ele><time>2026-04-23T18:02:50Z</time></trkpt><trkpt lat="43.62031358662987" lon="11.322299064520465"><ele>358.00000000000006</ele><time>2026-04-23T18:02:51Z</time></trkpt><trkpt lat="43.620332566047146" lon="11.322384229335551"><ele>358.0</ele><time>2026-04-23T18:02:52Z</time></trkpt><trkpt lat="43.62036794930862" lon="11.322543001752212"><ele>358.2</ele><time>2026-04-23T18:02:54Z</time></trkpt><trkpt lat="43.620399988288696" lon="11.322685651679365"><ele>358.4</ele><time>2026-04-23T18:02:56Z</time></trkpt><trkpt lat="43.62043217994792" lon="11.322828117510932"><ele>358.59999999999997</ele><time>2026-04-23T18:02:58Z</time></trkpt><trkpt lat="43.62046044892149" lon="11.322953223295858"><ele>358.79999999999995</ele><time>2026-04-23T18:03:01Z</time></trkpt><trkpt lat="43.620492780515214" lon="11.3230969135593"><ele>359.0</ele><time>2026-04-23T18:03:03Z</time></trkpt><trkpt lat="43.62051835752627" lon="11.32321740038375"><ele>360.2</ele><time>2026-04-23T18:03:05Z</time></trkpt><trkpt lat="43.620541202447974" lon="11.323351914370308"><ele>361.4</ele><time>2026-04-23T18:03:07Z</time></trkpt><trkpt lat="43.62056568837962" lon="11.323462674082421"><ele>362.6</ele><time>2026-04-23T18:03:09Z</time></trkpt><trkpt lat="43.62063057718288" lon="11.323450684234526"><ele>363.8</ele><time>2026-04-23T18:03:10Z</time></trkpt><trkpt lat="43.62054434021135" lon="11.323507465872485"><ele>365.0</ele><time>2026-04-23T18:03:11.999Z</time></trkpt><trkpt lat="43.62042181303572" lon="11.3235435699299"><ele>365.0</ele><time>2026-04-23T18:03:13.999Z</time></trkpt><trkpt lat="43.6203378451579" lon="11.323598781136278"><ele>365.0</ele><time>2026-04-23T18:03:14.999Z</time></trkpt><trkpt lat="43.620272186970894" lon="11.323627700030524"><ele>365.0</ele><time>2026-04-23T18:03:15.999Z</time></trkpt><trkpt lat="43.62015888661626" lon="11.323636127167639"><ele>365.0</ele><time>2026-04-23T18:03:17.999Z</time></trkpt><trkpt lat="43.620066348972955" lon="11.323613210071999"><ele>365.0</ele><time>2026-04-23T18:03:19.999Z</time></trkpt><trkpt lat="43.619987665868294" lon="11.323661430666975"><ele>364.0</ele><time>2026-04-23T18:03:21.999Z</time></trkpt><trkpt lat="43.619974981881114" lon="11.323839517681739"><ele>363.0</ele><time>2026-04-23T18:03:23.999Z</time></trkpt><trkpt lat="43.619972851506326" lon="11.323995140785886"><ele>362.0</ele><time>2026-04-23T18:03:25.999Z</time></trkpt><trkpt lat="43.62001495067308" lon="11.32414864860532"><ele>361.0</ele><time>2026-04-23T18:03:27.999Z</time></trkpt><trkpt lat="43.62003119773553" lon="11.324273931145349"><ele>361.0</ele><time>2026-04-23T18:03:28.999Z</time></trkpt><trkpt lat="43.62004052573953" lon="11.324387552772453"><ele>361.0</ele><time>2026-04-23T18:03:29.999Z</time></trkpt><trkpt lat="43.620051478002374" lon="11.324496003722663"><ele>361.0</ele><time>2026-04-23T18:03:30.999Z</time></trkpt><trkpt lat="43.62006390934243" lon="11.324583084487049"><ele>361.0</ele><time>2026-04-23T18:03:31.999Z</time></trkpt><trkpt lat="43.62008249833655" lon="11.3246781213984"><ele>361.0</ele><time>2026-04-23T18:03:32.999Z</time></trkpt><trkpt lat="43.62010123521636" lon="11.324763348941193"><ele>361.0</ele><time>2026-04-23T18:03:33.999Z</time></trkpt><trkpt lat="43.62012214357957" lon="11.324847278812651"><ele>361.0</ele><time>2026-04-23T18:03:34.999Z</time></trkpt><trkpt lat="43.62013753547488" lon="11.324932652049492"><ele>360.6</ele><time>2026-04-23T18:03:35.999Z</time></trkpt><trkpt lat="43.62018238249818" lon="11.325127958009167"><ele>360.20000000000005</ele><time>2026-04-23T18:03:37.999Z</time></trkpt><trkpt lat="43.62020970154843" lon="11.32524798105056"><ele>359.79999999999995</ele><time>2026-04-23T18:03:38.999Z</time></trkpt><trkpt lat="43.62023349706765" lon="11.325343398722866"><ele>359.4</ele><time>2026-04-23T18:03:39.999Z</time></trkpt><trkpt lat="43.62025484822799" lon="11.32543044494077"><ele>359.0</ele><time>2026-04-23T18:03:40.999Z</time></trkpt><trkpt lat="43.6202774300927" lon="11.325526109342565"><ele>359.6666666666667</ele><time>2026-04-23T18:03:41.999Z</time></trkpt><trkpt lat="43.62029208447138" lon="11.325619180245573"><ele>360.33333333333337</ele><time>2026-04-23T18:03:42.999Z</time></trkpt><trkpt lat="43.62027118815468" lon="11.325716928219999"><ele>361.0</ele><time>2026-04-23T18:03:43.999Z</time></trkpt><trkpt lat="43.620320018766314" lon="11.325852404864166"><ele>361.6666666666667</ele><time>2026-04-23T18:03:45.999Z</time></trkpt><trkpt lat="43.62027898840682" lon="11.325936819672874"><ele>362.3333333333333</ele><time>2026-04-23T18:03:47.999Z</time></trkpt><trkpt lat="43.62019790847273" lon="11.325904725052737"><ele>363.0</ele><time>2026-04-23T18:03:49.999Z</time></trkpt><trkpt lat="43.62013977151621" lon="11.32578922630048"><ele>363.0</ele><time>2026-04-23T18:03:51.999Z</time></trkpt><trkpt lat="43.620105240208716" lon="11.325700963865991"><ele>363.0</ele><time>2026-04-23T18:03:52.999Z</time></trkpt><trkpt lat="43.620081724443295" lon="11.32561409921029"><ele>363.0</ele><time>2026-04-23T18:03:53.999Z</time></trkpt><trkpt lat="43.62000857722761" lon="11.325471094816919"><ele>363.0</ele><time>2026-04-23T18:03:55.999Z</time></trkpt><trkpt lat="43.61996817091786" lon="11.325397958329901"><ele>363.0</ele><time>2026-04-23T18:03:56.999Z</time></trkpt><trkpt lat="43.6199240762968" lon="11.325318437173827"><ele>363.0</ele><time>2026-04-23T18:03:57.999Z</time></trkpt><trkpt lat="43.619877720036335" lon="11.325255080931242"><ele>363.0</ele><time>2026-04-23T18:03:58.999Z</time></trkpt><trkpt lat="43.61977576413868" lon="11.325207215696723"><ele>363.0</ele><time>2026-04-23T18:04:00.999Z</time></trkpt><trkpt lat="43.619704328655054" lon="11.325288419667443"><ele>363.0</ele><time>2026-04-23T18:04:02.999Z</time></trkpt><trkpt lat="43.619730492519054" lon="11.32545054273984"><ele>363.0</ele><time>2026-04-23T18:04:04.999Z</time></trkpt><trkpt lat="43.61976220595899" lon="11.325531389974136"><ele>363.0</ele><time>2026-04-23T18:04:05.999Z</time></trkpt><trkpt lat="43.619816045598" lon="11.32570042624692"><ele>363.0</ele><time>2026-04-23T18:04:07.999Z</time></trkpt><trkpt lat="43.619866299340394" lon="11.325854740613163"><ele>363.0</ele><time>2026-04-23T18:04:09.999Z</time></trkpt><trkpt lat="43.61990638750476" lon="11.325985381144823"><ele>363.0</ele><time>2026-04-23T18:04:11.999Z</time></trkpt><trkpt lat="43.619959983773306" lon="11.32613447670178"><ele>363.0</ele><time>2026-04-23T18:04:13.999Z</time></trkpt><trkpt lat="43.619964941090565" lon="11.326225309285912"><ele>363.0</ele><time>2026-04-23T18:04:14.999Z</time></trkpt><trkpt lat="43.61991873023126" lon="11.326396654073571"><ele>363.0</ele><time>2026-04-23T18:04:16.999Z</time></trkpt><trkpt lat="43.61987061895732" lon="11.326516904216698"><ele>363.0</ele><time>2026-04-23T18:04:18.999Z</time></trkpt><trkpt lat="43.61977117761268" lon="11.326472057426749"><ele>363.0</ele><time>2026-04-23T18:04:20.999Z</time></trkpt><trkpt lat="43.61971887924547" lon="11.326419342631846"><ele>363.0</ele><time>2026-04-23T18:04:21.999Z</time></trkpt><trkpt lat="43.619664184415086" lon="11.326337725315119"><ele>363.0</ele><time>2026-04-23T18:04:22.999Z</time></trkpt><trkpt lat="43.61960915096159" lon="11.326266130154682"><ele>363.0</ele><time>2026-04-23T18:04:23.999Z</time></trkpt><trkpt lat="43.6195447931431" lon="11.326189272740526"><ele>363.0</ele><time>2026-04-23T18:04:24.999Z</time></trkpt><trkpt lat="43.619486162516594" lon="11.326113738268766"><ele>363.0</ele><time>2026-04-23T18:04:25.999Z</time></trkpt><trkpt lat="43.61942977718387" lon="11.326045100445079"><ele>363.0</ele><time>2026-04-23T18:04:26.999Z</time></trkpt><trkpt lat="43.619376825182925" lon="11.325994659700722"><ele>363.0</ele><time>2026-04-23T18:04:27.999Z</time></trkpt><trkpt lat="43.61931321228333" lon="11.32594975385438"><ele>363.0</ele><time>2026-04-23T18:04:28.999Z</time></trkpt><trkpt lat="43.61924865789094" lon="11.32593431620248"><ele>363.0</ele><time>2026-04-23T18:04:29.999Z</time></trkpt><trkpt lat="43.61913085869494" lon="11.325941510139707"><ele>364.85714285714283</ele><time>2026-04-23T18:04:31.999Z</time></trkpt><trkpt lat="43.61905581107056" lon="11.325962579954234"><ele>366.7142857142857</ele><time>2026-04-23T18:04:33Z</time></trkpt><trkpt lat="43.61899413950213" lon="11.32599098890876"><ele>368.57142857142856</ele><time>2026-04-23T18:04:34Z</time></trkpt><trkpt lat="43.618929469991635" lon="11.326015419789009"><ele>370.42857142857144</ele><time>2026-04-23T18:04:35Z</time></trkpt><trkpt lat="43.61886601110747" lon="11.326049382396992"><ele>372.2857142857143</ele><time>2026-04-23T18:04:36Z</time></trkpt><trkpt lat="43.618804932886306" lon="11.32607917516554"><ele>374.1428571428571</ele><time>2026-04-23T18:04:37Z</time></trkpt><trkpt lat="43.61873770937393" lon="11.326119146919162"><ele>376.0</ele><time>2026-04-23T18:04:38Z</time></trkpt><trkpt lat="43.61867346698815" lon="11.326171069123342"><ele>379.16666666666663</ele><time>2026-04-23T18:04:39Z</time></trkpt><trkpt lat="43.61861077855842" lon="11.326193391876672"><ele>382.3333333333333</ele><time>2026-04-23T18:04:40Z</time></trkpt><trkpt lat="43.61854983553275" lon="11.326243468776877"><ele>385.5</ele><time>2026-04-23T18:04:41Z</time></trkpt><trkpt lat="43.618499064366546" lon="11.326321398095208"><ele>388.66666666666663</ele><time>2026-04-23T18:04:43Z</time></trkpt><trkpt lat="43.618411072951204" lon="11.326372073397721"><ele>391.8333333333333</ele><time>2026-04-23T18:04:45Z</time></trkpt><trkpt lat="43.618323649822806" lon="11.32634079958215"><ele>395.0</ele><time>2026-04-23T18:04:47Z</time></trkpt><trkpt lat="43.61822950401597" lon="11.326269603018853"><ele>394.99999999999994</ele><time>2026-04-23T18:04:49Z</time></trkpt><trkpt lat="43.61817173702959" lon="11.3262132896623"><ele>395.0</ele><time>2026-04-23T18:04:50Z</time></trkpt><trkpt lat="43.61812469622993" lon="11.326130986497823"><ele>395.0</ele><time>2026-04-23T18:04:51Z</time></trkpt><trkpt lat="43.61807535623668" lon="11.32605473956683"><ele>395.0</ele><time>2026-04-23T18:04:52Z</time></trkpt><trkpt lat="43.61797907732376" lon="11.325954964463818"><ele>394.99999999999994</ele><time>2026-04-23T18:04:54Z</time></trkpt><trkpt lat="43.61787490038486" lon="11.325937840071138"><ele>395.0</ele><time>2026-04-23T18:04:56Z</time></trkpt><trkpt lat="43.61777117298035" lon="11.325949638798598"><ele>394.99999999999994</ele><time>2026-04-23T18:04:58Z</time></trkpt><trkpt lat="43.61773430420001" lon="11.326125707450577"><ele>395.0</ele><time>2026-04-23T18:05:00Z</time></trkpt><trkpt lat="43.617799233414736" lon="11.326200411472058"><ele>395.0</ele><time>2026-04-23T18:05:01Z</time></trkpt><trkpt lat="43.6178114117637" lon="11.326287612262213"><ele>395.0</ele><time>2026-04-23T18:05:02Z</time></trkpt><trkpt lat="43.61783703964968" lon="11.32637293874304"><ele>394.99999999999994</ele><time>2026-04-23T18:05:03Z</time></trkpt><trkpt lat="43.61783525017546" lon="11.326501286400047"><ele>395.0</ele><time>2026-04-23T18:05:05Z</time></trkpt><trkpt lat="43.617761652100356" lon="11.326570961286102"><ele>403.0</ele><time>2026-04-23T18:05:07Z</time></trkpt><trkpt lat="43.61767271605518" lon="11.32650258399575"><ele>411.0</ele><time>2026-04-23T18:05:09Z</time></trkpt><trkpt lat="43.61754858950277" lon="11.3264889069815"><ele>419.0</ele><time>2026-04-23T18:05:10.999Z</time></trkpt><trkpt lat="43.6174444643379" lon="11.326455250782644"><ele>427.0</ele><time>2026-04-23T18:05:12.999Z</time></trkpt><trkpt lat="43.617344896012476" lon="11.326485086443462"><ele>435.0</ele><time>2026-04-23T18:05:14.999Z</time></trkpt><trkpt lat="43.617262703429645" lon="11.326542837736683"><ele>435.0</ele><time>2026-04-23T18:05:16.999Z</time></trkpt><trkpt lat="43.61726135020891" lon="11.3266299778501"><ele>435.0</ele><time>2026-04-23T18:05:19.999Z</time></trkpt><trkpt lat="43.61730253761171" lon="11.326728612237678"><ele>435.0</ele><time>2026-04-23T18:05:22.999Z</time></trkpt><trkpt lat="43.61734870386105" lon="11.32684872527486"><ele>435.0</ele><time>2026-04-23T18:05:25.999Z</time></trkpt><trkpt lat="43.61739053203533" lon="11.326958916066493"><ele>435.0</ele><time>2026-04-23T18:05:27.999Z</time></trkpt><trkpt lat="43.61742273484067" lon="11.327078975886442"><ele>435.0</ele><time>2026-04-23T18:05:29.999Z</time></trkpt><trkpt lat="43.617445325491815" lon="11.327189398726187"><ele>436.8333333333333</ele><time>2026-04-23T18:05:31.999Z</time></trkpt><trkpt lat="43.617472178859664" lon="11.327300522930843"><ele>438.66666666666663</ele><time>2026-04-23T18:05:33.999Z</time></trkpt><trkpt lat="43.61749883034098" lon="11.327406062789825"><ele>440.5</ele><time>2026-04-23T18:05:35.999Z</time></trkpt><trkpt lat="43.61753832951502" lon="11.327533327855853"><ele>442.3333333333333</ele><time>2026-04-23T18:05:37.999Z</time></trkpt><trkpt lat="43.61756992344313" lon="11.32763551401855"><ele>444.16666666666663</ele><time>2026-04-23T18:05:39.999Z</time></trkpt><trkpt lat="43.61758170573667" lon="11.327760635782775"><ele>446.0</ele><time>2026-04-23T18:05:42.999Z</time></trkpt><trkpt lat="43.617597866629495" lon="11.327877517898909"><ele>445.99999999999994</ele><time>2026-04-23T18:05:46.999Z</time></trkpt><trkpt lat="43.61761103802036" lon="11.327760631481365"><ele>446.0</ele><time>2026-04-23T18:05:51.999Z</time></trkpt><trkpt lat="43.61757750001138" lon="11.327649135698973"><ele>446.0</ele><time>2026-04-23T18:05:54.999Z</time></trkpt><trkpt lat="43.61755574018861" lon="11.327565098961372"><ele>446.0</ele><time>2026-04-23T18:05:56.999Z</time></trkpt><trkpt lat="43.61753343510074" lon="11.327457844193836"><ele>445.99999999999994</ele><time>2026-04-23T18:05:58.999Z</time></trkpt><trkpt lat="43.617513792664894" lon="11.327357828376627"><ele>446.0</ele><time>2026-04-23T18:06:00.999Z</time></trkpt><trkpt lat="43.617495798940425" lon="11.327268398310057"><ele>444.42857142857144</ele><time>2026-04-23T18:06:02.999Z</time></trkpt><trkpt lat="43.617467360396994" lon="11.327162049054381"><ele>442.85714285714283</ele><time>2026-04-23T18:06:04.999Z</time></trkpt><trkpt lat="43.61744334296006" lon="11.327062287652378"><ele>441.28571428571433</ele><time>2026-04-23T18:06:06.999Z</time></trkpt><trkpt lat="43.61742520835978" lon="11.326972237286276"><ele>439.7142857142857</ele><time>2026-04-23T18:06:08.999Z</time></trkpt><trkpt lat="43.61739491391449" lon="11.326876640590289"><ele>438.14285714285717</ele><time>2026-04-23T18:06:12.999Z</time></trkpt><trkpt lat="43.61735717844432" lon="11.326777574245881"><ele>436.5714285714286</ele><time>2026-04-23T18:06:15.999Z</time></trkpt><trkpt lat="43.61733375067769" lon="11.326693807960869"><ele>435.0</ele><time>2026-04-23T18:06:18.999Z</time></trkpt><trkpt lat="43.61729192887858" lon="11.32662600998178"><ele>435.0</ele><time>2026-04-23T18:06:21.999Z</time></trkpt><trkpt lat="43.617273575467614" lon="11.326530057849746"><ele>435.0</ele><time>2026-04-23T18:06:39Z</time></trkpt><trkpt lat="43.617659184377715" lon="11.326541789039887"><ele>435.0</ele><time>2026-04-23T18:06:47Z</time></trkpt><trkpt lat="43.617768190235076" lon="11.326568226710195"><ele>435.0</ele><time>2026-04-23T18:06:49Z</time></trkpt><trkpt lat="43.61784490603006" lon="11.32655721557165"><ele>435.0</ele><time>2026-04-23T18:06:51Z</time></trkpt><trkpt lat="43.61789375237998" lon="11.326489735818608"><ele>435.0</ele><time>2026-04-23T18:06:53Z</time></trkpt><trkpt lat="43.617851183310556" lon="11.326338304411646"><ele>435.0</ele><time>2026-04-23T18:06:54Z</time></trkpt><trkpt lat="43.61780743381826" lon="11.32620721196485"><ele>430.6</ele><time>2026-04-23T18:06:56Z</time></trkpt><trkpt lat="43.61778028868156" lon="11.326084355888323"><ele>426.2</ele><time>2026-04-23T18:06:58Z</time></trkpt><trkpt lat="43.61776062782221" lon="11.326000484702725"><ele>421.79999999999995</ele><time>2026-04-23T18:07:02Z</time></trkpt><trkpt lat="43.617582925906234" lon="11.326076364246683"><ele>417.4</ele><time>2026-04-23T18:07:05Z</time></trkpt><trkpt lat="43.6175057562676" lon="11.326111937108422"><ele>413.0</ele><time>2026-04-23T18:07:07Z</time></trkpt><trkpt lat="43.6174332028113" lon="11.326097680310502"><ele>413.0</ele><time>2026-04-23T18:07:09Z</time></trkpt><trkpt lat="43.61731738448586" lon="11.326106921255944"><ele>413.0</ele><time>2026-04-23T18:07:10.999Z</time></trkpt><trkpt lat="43.61722797485737" lon="11.326122648570454"><ele>413.0</ele><time>2026-04-23T18:07:11.999Z</time></trkpt><trkpt lat="43.617143463768905" lon="11.326189533227343"><ele>413.0</ele><time>2026-04-23T18:07:13.999Z</time></trkpt><trkpt lat="43.617068399628025" lon="11.326272121446685"><ele>413.0</ele><time>2026-04-23T18:07:15.999Z</time></trkpt><trkpt lat="43.617022251271734" lon="11.32639896714512"><ele>413.49999999999994</ele><time>2026-04-23T18:07:17.999Z</time></trkpt><trkpt lat="43.61699654242993" lon="11.326542594123621"><ele>414.0</ele><time>2026-04-23T18:07:19.999Z</time></trkpt><trkpt lat="43.616973356845016" lon="11.326625339607519"><ele>414.5</ele><time>2026-04-23T18:07:20.999Z</time></trkpt><trkpt lat="43.61694482776972" lon="11.326703639817405"><ele>415.0</ele><time>2026-04-23T18:07:21.999Z</time></trkpt><trkpt lat="43.616911772641124" lon="11.326781111366266"><ele>415.49999999999994</ele><time>2026-04-23T18:07:22.999Z</time></trkpt><trkpt lat="43.616869993635426" lon="11.326930049306418"><ele>416.0</ele><time>2026-04-23T18:07:24.999Z</time></trkpt><trkpt lat="43.61684175079266" lon="11.327090206273239"><ele>415.99999999999994</ele><time>2026-04-23T18:07:26.999Z</time></trkpt><trkpt lat="43.616823418577134" lon="11.327176177066551"><ele>416.0</ele><time>2026-04-23T18:07:27.999Z</time></trkpt><trkpt lat="43.61678679062353" lon="11.327323750750514"><ele>416.0</ele><time>2026-04-23T18:07:29.999Z</time></trkpt><trkpt lat="43.61676353490671" lon="11.327421695968896"><ele>416.0</ele><time>2026-04-23T18:07:31.999Z</time></trkpt><trkpt lat="43.61675128774161" lon="11.327556180115575"><ele>415.99999999999994</ele><time>2026-04-23T18:07:33.999Z</time></trkpt><trkpt lat="43.616744473041265" lon="11.327650433420565"><ele>416.0</ele><time>2026-04-23T18:07:34.999Z</time></trkpt><trkpt lat="43.616735255081366" lon="11.327747140976728"><ele>418.6</ele><time>2026-04-23T18:07:35.999Z</time></trkpt><trkpt lat="43.61670040998812" lon="11.327852404978865"><ele>421.20000000000005</ele><time>2026-04-23T18:07:37.999Z</time></trkpt><trkpt lat="43.61661596803093" lon="11.327885106989331"><ele>423.79999999999995</ele><time>2026-04-23T18:07:39.999Z</time></trkpt><trkpt lat="43.61652203335977" lon="11.327939816179018"><ele>426.4</ele><time>2026-04-23T18:07:41.999Z</time></trkpt><trkpt lat="43.61644964457718" lon="11.328040785819308"><ele>429.0</ele><time>2026-04-23T18:07:43.999Z</time></trkpt><trkpt lat="43.61638516367392" lon="11.328147679914059"><ele>429.8333333333333</ele><time>2026-04-23T18:07:45.999Z</time></trkpt><trkpt lat="43.61632672242255" lon="11.328242552723284"><ele>430.66666666666663</ele><time>2026-04-23T18:07:47.999Z</time></trkpt><trkpt lat="43.616260857320164" lon="11.328260212339876"><ele>431.5</ele><time>2026-04-23T18:07:49.999Z</time></trkpt><trkpt lat="43.616193631215424" lon="11.328238456514361"><ele>432.3333333333333</ele><time>2026-04-23T18:07:51.999Z</time></trkpt><trkpt lat="43.616105602736454" lon="11.328177570453855"><ele>433.16666666666663</ele><time>2026-04-23T18:07:53.999Z</time></trkpt><trkpt lat="43.61603089737921" lon="11.328053829019037"><ele>434.0</ele><time>2026-04-23T18:07:55.999Z</time></trkpt><trkpt lat="43.6159711505807" lon="11.327988450418012"><ele>434.0</ele><time>2026-04-23T18:07:56.999Z</time></trkpt><trkpt lat="43.615892715822646" lon="11.327866146829487"><ele>434.0</ele><time>2026-04-23T18:07:58.999Z</time></trkpt><trkpt lat="43.615836331914046" lon="11.327778018716183"><ele>434.0</ele><time>2026-04-23T18:08:00.999Z</time></trkpt><trkpt lat="43.61574750824995" lon="11.327649237804014"><ele>434.0</ele><time>2026-04-23T18:08:02.999Z</time></trkpt><trkpt lat="43.61568663454193" lon="11.327586938860417"><ele>434.0</ele><time>2026-04-23T18:08:03.999Z</time></trkpt><trkpt lat="43.615623093029974" lon="11.327519798904191"><ele>434.0</ele><time>2026-04-23T18:08:04.999Z</time></trkpt><trkpt lat="43.615533329161025" lon="11.327432714013064"><ele>434.0</ele><time>2026-04-23T18:08:06.999Z</time></trkpt><trkpt lat="43.61544652370559" lon="11.327350694436268"><ele>434.0</ele><time>2026-04-23T18:08:08.999Z</time></trkpt><trkpt lat="43.615363482532445" lon="11.327312978372392"><ele>434.0</ele><time>2026-04-23T18:08:10.999Z</time></trkpt><trkpt lat="43.615270467278386" lon="11.327270218353846"><ele>434.0</ele><time>2026-04-23T18:08:12.999Z</time></trkpt><trkpt lat="43.61518315857789" lon="11.327214285155941"><ele>433.3333333333333</ele><time>2026-04-23T18:08:14.999Z</time></trkpt><trkpt lat="43.61510606546503" lon="11.327143876571732"><ele>432.66666666666663</ele><time>2026-04-23T18:08:16.999Z</time></trkpt><trkpt lat="43.61504107338445" lon="11.327084347301229"><ele>432.0</ele><time>2026-04-23T18:08:17.999Z</time></trkpt><trkpt lat="43.61498609429355" lon="11.32703330814002"><ele>431.33333333333337</ele><time>2026-04-23T18:08:18.999Z</time></trkpt><trkpt lat="43.614924398184314" lon="11.32692793395821"><ele>430.6666666666667</ele><time>2026-04-23T18:08:20.999Z</time></trkpt><trkpt lat="43.614833563131825" lon="11.326924706293786"><ele>430.0</ele><time>2026-04-23T18:08:22.999Z</time></trkpt><trkpt lat="43.61471549318966" lon="11.326934535305398"><ele>430.00000000000006</ele><time>2026-04-23T18:08:24.999Z</time></trkpt><trkpt lat="43.61463390221256" lon="11.326985728734035"><ele>430.0</ele><time>2026-04-23T18:08:26.999Z</time></trkpt><trkpt lat="43.61454922451153" lon="11.327045507274974"><ele>430.0</ele><time>2026-04-23T18:08:28.999Z</time></trkpt><trkpt lat="43.614451325995105" lon="11.32709473153913"><ele>430.0</ele><time>2026-04-23T18:08:30.999Z</time></trkpt><trkpt lat="43.614392204459605" lon="11.327133110710701"><ele>430.00000000000006</ele><time>2026-04-23T18:08:31.999Z</time></trkpt><trkpt lat="43.61432809029865" lon="11.327156130873304"><ele>430.0</ele><time>2026-04-23T18:08:32.999Z</time></trkpt><trkpt lat="43.61418957810581" lon="11.327168605847712"><ele>430.0</ele><time>2026-04-23T18:08:34.999Z</time></trkpt><trkpt lat="43.614121031353164" lon="11.327197299386018"><ele>430.0</ele><time>2026-04-23T18:08:35.999Z</time></trkpt><trkpt lat="43.614015943949546" lon="11.327185449630624"><ele>430.0</ele><time>2026-04-23T18:08:37.999Z</time></trkpt><trkpt lat="43.61388988469175" lon="11.32714451027059"><ele>430.0</ele><time>2026-04-23T18:08:39.999Z</time></trkpt><trkpt lat="43.61378080664478" lon="11.327135505067483"><ele>430.0</ele><time>2026-04-23T18:08:41.999Z</time></trkpt><trkpt lat="43.613715853883676" lon="11.327137356080486"><ele>430.00000000000006</ele><time>2026-04-23T18:08:42.998Z</time></trkpt><trkpt lat="43.61362885250219" lon="11.327143619714192"><ele>430.0</ele><time>2026-04-23T18:08:45Z</time></trkpt><trkpt lat="43.61368336618894" lon="11.327238241852202"><ele>430.0</ele><time>2026-04-23T18:09:03Z</time></trkpt><trkpt lat="43.61370660362839" lon="11.327375583492547"><ele>430.0</ele><time>2026-04-23T18:09:06Z</time></trkpt><trkpt lat="43.61376474457474" lon="11.327456512224499"><ele>430.00000000000006</ele><time>2026-04-23T18:09:08Z</time></trkpt><trkpt lat="43.61382871548993" lon="11.327486161710079"><ele>430.0</ele><time>2026-04-23T18:09:09Z</time></trkpt><trkpt lat="43.613909545530646" lon="11.327513268471035"><ele>433.00000000000006</ele><time>2026-04-23T18:09:11Z</time></trkpt><trkpt lat="43.613998987728046" lon="11.327554120230934"><ele>436.0</ele><time>2026-04-23T18:09:13Z</time></trkpt><trkpt lat="43.614065324967626" lon="11.327608425220268"><ele>439.0</ele><time>2026-04-23T18:09:14.999Z</time></trkpt><trkpt lat="43.61413783491668" lon="11.32765702447515"><ele>442.0</ele><time>2026-04-23T18:09:16.999Z</time></trkpt><trkpt lat="43.61421201652054" lon="11.327714974699338"><ele>445.00000000000006</ele><time>2026-04-23T18:09:18.999Z</time></trkpt><trkpt lat="43.614270154353434" lon="11.327807094486705"><ele>448.0</ele><time>2026-04-23T18:09:20.999Z</time></trkpt><trkpt lat="43.614341561315356" lon="11.327860249905147"><ele>448.00000000000006</ele><time>2026-04-23T18:09:23.999Z</time></trkpt><trkpt lat="43.614409307414405" lon="11.327888186927714"><ele>448.0</ele><time>2026-04-23T18:09:26.999Z</time></trkpt><trkpt lat="43.614495035678274" lon="11.327936875629652"><ele>448.0</ele><time>2026-04-23T18:09:29.999Z</time></trkpt><trkpt lat="43.61455348593009" lon="11.327998288316646"><ele>448.0</ele><time>2026-04-23T18:09:31.999Z</time></trkpt><trkpt lat="43.61462997882416" lon="11.328055362009742"><ele>448.00000000000006</ele><time>2026-04-23T18:09:33.999Z</time></trkpt><trkpt lat="43.614711553847904" lon="11.328118779362892"><ele>448.0</ele><time>2026-04-23T18:09:35.999Z</time></trkpt><trkpt lat="43.614789193435996" lon="11.328174992073043"><ele>451.00000000000006</ele><time>2026-04-23T18:09:37.999Z</time></trkpt><trkpt lat="43.614842280910004" lon="11.328238112564234"><ele>454.0</ele><time>2026-04-23T18:09:39.999Z</time></trkpt><trkpt lat="43.614921004490654" lon="11.328284711505152"><ele>457.0</ele><time>2026-04-23T18:09:42.999Z</time></trkpt><trkpt lat="43.61498870254842" lon="11.32832771779881"><ele>460.0</ele><time>2026-04-23T18:09:44.999Z</time></trkpt><trkpt lat="43.61503989118607" lon="11.328402635770603"><ele>463.00000000000006</ele><time>2026-04-23T18:09:46.999Z</time></trkpt><trkpt lat="43.615081336452285" lon="11.328497563305056"><ele>466.0</ele><time>2026-04-23T18:09:48.999Z</time></trkpt><trkpt lat="43.61510976353385" lon="11.328627933030962"><ele>466.00000000000006</ele><time>2026-04-23T18:09:50.999Z</time></trkpt><trkpt lat="43.61514509037504" lon="11.328739708853375"><ele>466.0</ele><time>2026-04-23T18:09:52.999Z</time></trkpt><trkpt lat="43.61517746491492" lon="11.328834683897497"><ele>466.0</ele><time>2026-04-23T18:09:54.999Z</time></trkpt><trkpt lat="43.61522692417975" lon="11.328941951755445"><ele>466.0</ele><time>2026-04-23T18:09:56.999Z</time></trkpt><trkpt lat="43.61529769942223" lon="11.329003876399339"><ele>466.00000000000006</ele><time>2026-04-23T18:09:58.999Z</time></trkpt><trkpt lat="43.61535657608636" lon="11.329077297173647"><ele>466.0</ele><time>2026-04-23T18:10:00.999Z</time></trkpt><trkpt lat="43.6154526070022" lon="11.32916761811427"><ele>467.00000000000006</ele><time>2026-04-23T18:10:03.999Z</time></trkpt><trkpt lat="43.61552716777786" lon="11.32923838566708"><ele>468.0</ele><time>2026-04-23T18:10:05.999Z</time></trkpt><trkpt lat="43.61555898895633" lon="11.329322453667748"><ele>469.0</ele><time>2026-04-23T18:10:07.999Z</time></trkpt><trkpt lat="43.615603475272394" lon="11.329428704724478"><ele>470.0</ele><time>2026-04-23T18:11:07Z</time></trkpt><trkpt lat="43.61562243394264" lon="11.329544781560692"><ele>471.00000000000006</ele><time>2026-04-23T18:11:10Z</time></trkpt><trkpt lat="43.6156794547852" lon="11.329656906031293"><ele>472.0</ele><time>2026-04-23T18:11:13Z</time></trkpt><trkpt lat="43.61568936393741" lon="11.329746342895078"><ele>474.42857142857144</ele><time>2026-04-23T18:11:16Z</time></trkpt><trkpt lat="43.61572107963253" lon="11.329844204335524"><ele>476.8571428571429</ele><time>2026-04-23T18:11:24.999Z</time></trkpt><trkpt lat="43.61576491666995" lon="11.32991037178579"><ele>479.28571428571433</ele><time>2026-04-23T18:15:03Z</time></trkpt><trkpt lat="43.61580753960666" lon="11.32997601536777"><ele>481.7142857142857</ele><time>2026-04-23T18:15:36Z</time></trkpt><trkpt lat="43.615844148825786" lon="11.33005032318388"><ele>484.1428571428572</ele><time>2026-04-23T18:15:39Z</time></trkpt><trkpt lat="43.615889318426326" lon="11.33012742773531"><ele>486.5714285714286</ele><time>2026-04-23T18:15:42Z</time></trkpt><trkpt lat="43.61588606676748" lon="11.330216156746781"><ele>489.0</ele><time>2026-04-23T18:15:52Z</time></trkpt><trkpt lat="43.615883673167104" lon="11.330322601335984"><ele>489.0</ele><time>2026-04-23T18:15:59Z</time></trkpt><trkpt lat="43.61593184846888" lon="11.330388535287526"><ele>489.00000000000006</ele><time>2026-04-23T18:16:01Z</time></trkpt><trkpt lat="43.61593039676063" lon="11.330484504388341"><ele>489.0</ele><time>2026-04-23T18:16:23Z</time></trkpt><trkpt lat="43.615980617449225" lon="11.330548517706452"><ele>489.0</ele><time>2026-04-23T18:16:26Z</time></trkpt><trkpt lat="43.61602216631091" lon="11.330632067299199"><ele>489.00000000000006</ele><time>2026-04-23T18:16:30Z</time></trkpt><trkpt lat="43.616081219722076" lon="11.330697399757877"><ele>489.0</ele><time>2026-04-23T18:16:34Z</time></trkpt><trkpt lat="43.61615851405765" lon="11.330767154440823"><ele>489.0</ele><time>2026-04-23T18:17:53Z</time></trkpt><trkpt lat="43.616188628432454" lon="11.33088903801454"><ele>492.6</ele><time>2026-04-23T18:17:58Z</time></trkpt><trkpt lat="43.61627365107864" lon="11.330942115270323"><ele>496.2</ele><time>2026-04-23T18:18:02Z</time></trkpt><trkpt lat="43.61635173190275" lon="11.331026779512984"><ele>499.80000000000007</ele><time>2026-04-23T18:18:04Z</time></trkpt><trkpt lat="43.61640353514198" lon="11.331175685032251"><ele>503.40000000000003</ele><time>2026-04-23T18:18:06Z</time></trkpt><trkpt lat="43.616446392364736" lon="11.331280859864066"><ele>507.0</ele><time>2026-04-23T18:18:08Z</time></trkpt><trkpt lat="43.61648645265976" lon="11.331394392399522"><ele>508.40000000000003</ele><time>2026-04-23T18:18:10Z</time></trkpt><trkpt lat="43.61652771306099" lon="11.331513416518298"><ele>509.80000000000007</ele><time>2026-04-23T18:18:12Z</time></trkpt><trkpt lat="43.61659273569826" lon="11.331590008195018"><ele>511.2</ele><time>2026-04-23T18:18:14Z</time></trkpt><trkpt lat="43.61667300016297" lon="11.33166130522244"><ele>512.6</ele><time>2026-04-23T18:18:16Z</time></trkpt><trkpt lat="43.61675249467541" lon="11.331766631925428"><ele>514.0</ele><time>2026-04-23T18:18:18Z</time></trkpt><trkpt lat="43.61679887801489" lon="11.331843828664491"><ele>514.0</ele><time>2026-04-23T18:18:19Z</time></trkpt><trkpt lat="43.61683999015836" lon="11.331915069313728"><ele>514.0</ele><time>2026-04-23T18:18:20Z</time></trkpt><trkpt lat="43.616875502678276" lon="11.33199453283121"><ele>514.0</ele><time>2026-04-23T18:18:21Z</time></trkpt><trkpt lat="43.61691636167134" lon="11.33206798142188"><ele>514.0</ele><time>2026-04-23T18:18:22Z</time></trkpt><trkpt lat="43.616960905653535" lon="11.332136469125047"><ele>514.0</ele><time>2026-04-23T18:18:23Z</time></trkpt><trkpt lat="43.617022615657106" lon="11.33227120966402"><ele>514.0</ele><time>2026-04-23T18:18:25Z</time></trkpt><trkpt lat="43.61707675732326" lon="11.332397812208315"><ele>514.8333333333334</ele><time>2026-04-23T18:18:27Z</time></trkpt><trkpt lat="43.61709429576303" lon="11.332482825790347"><ele>515.6666666666667</ele><time>2026-04-23T18:18:29Z</time></trkpt><trkpt lat="43.617151703099" lon="11.332540003459304"><ele>516.5</ele><time>2026-04-23T18:18:31Z</time></trkpt><trkpt lat="43.61720932552784" lon="11.332631446438391"><ele>517.3333333333334</ele><time>2026-04-23T18:18:33Z</time></trkpt><trkpt lat="43.617257441003055" lon="11.33271591324181"><ele>518.1666666666666</ele><time>2026-04-23T18:18:35Z</time></trkpt><trkpt lat="43.61731872731749" lon="11.3328153202727"><ele>519.0</ele><time>2026-04-23T18:18:38Z</time></trkpt><trkpt lat="43.617377092371804" lon="11.33287993269429"><ele>519.0</ele><time>2026-04-23T18:18:40Z</time></trkpt><trkpt lat="43.617417927162656" lon="11.332979140063427"><ele>519.0</ele><time>2026-04-23T18:18:42Z</time></trkpt><trkpt lat="43.61746937281248" lon="11.33304570764886"><ele>519.0</ele><time>2026-04-23T18:18:44Z</time></trkpt><trkpt lat="43.61753317909486" lon="11.333133463780916"><ele>519.0</ele><time>2026-04-23T18:18:46.999Z</time></trkpt><trkpt lat="43.617579505794936" lon="11.333217845110953"><ele>519.0</ele><time>2026-04-23T18:18:48.999Z</time></trkpt><trkpt lat="43.6176403096269" lon="11.333251402768314"><ele>519.0</ele><time>2026-04-23T18:18:58.999Z</time></trkpt><trkpt lat="43.617707873469286" lon="11.333249687968058"><ele>520.2857142857142</ele><time>2026-04-23T18:19:01.999Z</time></trkpt><trkpt lat="43.617773429018605" lon="11.3332633164178"><ele>521.5714285714286</ele><time>2026-04-23T18:19:03.999Z</time></trkpt><trkpt lat="43.61782511743337" lon="11.333331444166374"><ele>522.8571428571429</ele><time>2026-04-23T18:19:06.999Z</time></trkpt><trkpt lat="43.61786232766675" lon="11.33340934443889"><ele>524.1428571428571</ele><time>2026-04-23T18:21:11.999Z</time></trkpt><trkpt lat="43.617922776967674" lon="11.333439522648849"><ele>525.4285714285714</ele><time>2026-04-23T18:21:14.999Z</time></trkpt><trkpt lat="43.61797212208315" lon="11.333523973887822"><ele>526.7142857142857</ele><time>2026-04-23T18:21:17.999Z</time></trkpt><trkpt lat="43.6180329257589" lon="11.333609805680338"><ele>528.0</ele><time>2026-04-23T18:21:21Z</time></trkpt><trkpt lat="43.618082856426305" lon="11.33366439771892"><ele>529.1428571428571</ele><time>2026-04-23T18:21:23Z</time></trkpt><trkpt lat="43.61813095328962" lon="11.333732310557263"><ele>530.2857142857143</ele><time>2026-04-23T18:21:26Z</time></trkpt><trkpt lat="43.61816171670414" lon="11.333824730657112"><ele>531.4285714285714</ele><time>2026-04-23T18:21:29Z</time></trkpt><trkpt lat="43.61823347308469" lon="11.33388420226895"><ele>532.5714285714286</ele><time>2026-04-23T18:21:32Z</time></trkpt><trkpt lat="43.61828415930362" lon="11.333961402861913"><ele>533.7142857142857</ele><time>2026-04-23T18:21:35Z</time></trkpt><trkpt lat="43.61832152094954" lon="11.334057865803498"><ele>534.8571428571429</ele><time>2026-04-23T18:21:38Z</time></trkpt><trkpt lat="43.61834422955904" lon="11.334139359548393"><ele>536.0</ele><time>2026-04-23T18:21:40Z</time></trkpt><trkpt lat="43.61838080877755" lon="11.334222493038178"><ele>538.3333333333333</ele><time>2026-04-23T18:21:42Z</time></trkpt><trkpt lat="43.61842654791888" lon="11.334299869285536"><ele>540.6666666666666</ele><time>2026-04-23T18:21:45Z</time></trkpt><trkpt lat="43.61846403435919" lon="11.334420003008953"><ele>543.0</ele><time>2026-04-23T18:21:48Z</time></trkpt><trkpt lat="43.61849904841222" lon="11.334529985033953"><ele>545.3333333333334</ele><time>2026-04-23T18:21:51Z</time></trkpt><trkpt lat="43.618532744433416" lon="11.334632970657715"><ele>547.6666666666667</ele><time>2026-04-23T18:22:14Z</time></trkpt><trkpt lat="43.618561153059005" lon="11.334758450531414"><ele>550.0</ele><time>2026-04-23T18:22:17Z</time></trkpt><trkpt lat="43.61857090619694" lon="11.334865756453704"><ele>551.1666666666667</ele><time>2026-04-23T18:22:20Z</time></trkpt><trkpt lat="43.61859323722571" lon="11.334956945410172"><ele>552.3333333333334</ele><time>2026-04-23T18:22:22Z</time></trkpt><trkpt lat="43.618601317641335" lon="11.33507774719236"><ele>553.5</ele><time>2026-04-23T18:22:26Z</time></trkpt><trkpt lat="43.61861998334648" lon="11.335192934299638"><ele>554.6666666666666</ele><time>2026-04-23T18:22:38Z</time></trkpt><trkpt lat="43.61861720235467" lon="11.335292758203122"><ele>555.8333333333333</ele><time>2026-04-23T18:22:40Z</time></trkpt><trkpt lat="43.618576303380586" lon="11.33537276575626"><ele>557.0</ele><time>2026-04-23T18:22:42.999Z</time></trkpt><trkpt lat="43.61860474448032" lon="11.335486289273277"><ele>559.1428571428571</ele><time>2026-04-23T18:22:45.999Z</time></trkpt><trkpt lat="43.61862801024064" lon="11.335601893715328"><ele>561.2857142857142</ele><time>2026-04-23T18:22:48.999Z</time></trkpt><trkpt lat="43.61861946842875" lon="11.335691362684475"><ele>563.4285714285713</ele><time>2026-04-23T18:22:50.999Z</time></trkpt><trkpt lat="43.61863218435571" lon="11.335784181943241"><ele>565.5714285714286</ele><time>2026-04-23T18:22:52.999Z</time></trkpt><trkpt lat="43.61863402360594" lon="11.33589647432274"><ele>567.7142857142857</ele><time>2026-04-23T18:22:56.999Z</time></trkpt><trkpt lat="43.61863988530886" lon="11.336007451525699"><ele>569.8571428571428</ele><time>2026-04-23T18:24:04Z</time></trkpt><trkpt lat="43.61867556803067" lon="11.336083587494905"><ele>572.0</ele><time>2026-04-23T18:24:11Z</time></trkpt><trkpt lat="43.61874664568356" lon="11.336127606824373"><ele>573.1666666666666</ele><time>2026-04-23T18:24:16Z</time></trkpt><trkpt lat="43.61877675478911" lon="11.336209049552044"><ele>574.3333333333333</ele><time>2026-04-23T18:24:19Z</time></trkpt><trkpt lat="43.618825338979384" lon="11.336266479826893"><ele>575.5</ele><time>2026-04-23T18:24:23Z</time></trkpt><trkpt lat="43.618875728254764" lon="11.336355207808596"><ele>576.6666666666666</ele><time>2026-04-23T18:24:26Z</time></trkpt><trkpt lat="43.618896380696455" lon="11.336451107983182"><ele>577.8333333333334</ele><time>2026-04-23T18:24:29Z</time></trkpt><trkpt lat="43.61893166382912" lon="11.336564122443082"><ele>579.0</ele><time>2026-04-23T18:24:32Z</time></trkpt><trkpt lat="43.6189533028817" lon="11.336677880655401"><ele>582.1666666666666</ele><time>2026-04-23T18:24:35Z</time></trkpt><trkpt lat="43.61893707281174" lon="11.33676413285564"><ele>585.3333333333334</ele><time>2026-04-23T18:24:43.999Z</time></trkpt><trkpt lat="43.61896040036687" lon="11.336871242084149"><ele>588.5</ele><time>2026-04-23T18:24:45.999Z</time></trkpt><trkpt lat="43.618973012620444" lon="11.337007920009189"><ele>591.6666666666667</ele><time>2026-04-23T18:24:49.999Z</time></trkpt><trkpt lat="43.61899765532317" lon="11.337098768372122"><ele>594.8333333333334</ele><time>2026-04-23T18:24:51.999Z</time></trkpt><trkpt lat="43.61904808334521" lon="11.337182750575883"><ele>598.0</ele><time>2026-04-23T18:24:54.999Z</time></trkpt><trkpt lat="43.61910661392708" lon="11.337232636810763"><ele>601.5</ele><time>2026-04-23T18:24:57.999Z</time></trkpt><trkpt lat="43.619167942040974" lon="11.337292066998648"><ele>605.0</ele><time>2026-04-23T18:25:23.999Z</time></trkpt><trkpt lat="43.61920702454084" lon="11.337397258643263"><ele>608.5</ele><time>2026-04-23T18:25:26.999Z</time></trkpt><trkpt lat="43.61925618497143" lon="11.337467821343438"><ele>612.0</ele><time>2026-04-23T18:25:29.999Z</time></trkpt><trkpt lat="43.619287821109374" lon="11.337584093796506"><ele>615.5</ele><time>2026-04-23T18:25:33Z</time></trkpt><trkpt lat="43.61933983436531" lon="11.337638725199215"><ele>619.0</ele><time>2026-04-23T18:25:35Z</time></trkpt><trkpt lat="43.619390958099586" lon="11.337717910526207"><ele>619.0</ele><time>2026-04-23T18:25:38Z</time></trkpt><trkpt lat="43.61931930280645" lon="11.337753697047823"><ele>619.0</ele><time>2026-04-23T18:25:52Z</time></trkpt><trkpt lat="43.619245578204925" lon="11.337834338928964"><ele>619.0</ele><time>2026-04-23T18:25:55Z</time></trkpt><trkpt lat="43.619193919379" lon="11.337908285122905"><ele>619.0</ele><time>2026-04-23T18:25:57Z</time></trkpt><trkpt lat="43.61913741448383" lon="11.337953444721734"><ele>619.0</ele><time>2026-04-23T18:25:59Z</time></trkpt><trkpt lat="43.61906104465902" lon="11.337995535858363"><ele>619.0</ele><time>2026-04-23T18:26:01Z</time></trkpt><trkpt lat="43.61898741779735" lon="11.338077867065081"><ele>621.6666666666667</ele><time>2026-04-23T18:26:03Z</time></trkpt><trkpt lat="43.61893644289827" lon="11.33818892392382"><ele>624.3333333333334</ele><time>2026-04-23T18:26:05Z</time></trkpt><trkpt lat="43.61888670506789" lon="11.33826125283659"><ele>627.0</ele><time>2026-04-23T18:26:07Z</time></trkpt><trkpt lat="43.61882932263765" lon="11.338356286391472"><ele>629.6666666666666</ele><time>2026-04-23T18:26:09Z</time></trkpt><trkpt lat="43.61880456575843" lon="11.338439417726875"><ele>632.3333333333333</ele><time>2026-04-23T18:26:11Z</time></trkpt><trkpt lat="43.618770749477115" lon="11.338553592150324"><ele>635.0</ele><time>2026-04-23T18:26:13Z</time></trkpt><trkpt lat="43.61873885006574" lon="11.33866827476245"><ele>635.0</ele><time>2026-04-23T18:26:15Z</time></trkpt><trkpt lat="43.618744751840836" lon="11.338755314909873"><ele>635.0</ele><time>2026-04-23T18:26:16Z</time></trkpt><trkpt lat="43.61876472900207" lon="11.338872417158704"><ele>635.0</ele><time>2026-04-23T18:26:17Z</time></trkpt><trkpt lat="43.61878136369229" lon="11.33896660101368"><ele>635.0</ele><time>2026-04-23T18:26:18Z</time></trkpt><trkpt lat="43.61882089352275" lon="11.339062305618265"><ele>635.0</ele><time>2026-04-23T18:26:20Z</time></trkpt><trkpt lat="43.61887223928634" lon="11.33914793662626"><ele>635.0</ele><time>2026-04-23T18:27:10.999Z</time></trkpt><trkpt lat="43.618944194242545" lon="11.33923412750119"><ele>635.8333333333333</ele><time>2026-04-23T18:27:12.999Z</time></trkpt><trkpt lat="43.618957088882546" lon="11.339337106788758"><ele>636.6666666666666</ele><time>2026-04-23T18:27:14.999Z</time></trkpt><trkpt lat="43.618976823014215" lon="11.339456633348473"><ele>637.5</ele><time>2026-04-23T18:27:17.999Z</time></trkpt><trkpt lat="43.61895029783166" lon="11.339576301717155"><ele>638.3333333333334</ele><time>2026-04-23T18:27:19.999Z</time></trkpt><trkpt lat="43.61893516832741" lon="11.339663790512317"><ele>639.1666666666667</ele><time>2026-04-23T18:27:21.999Z</time></trkpt><trkpt lat="43.618895037067254" lon="11.33976674992661"><ele>640.0</ele><time>2026-04-23T18:27:24.999Z</time></trkpt><trkpt lat="43.61885542027574" lon="11.339845945277501"><ele>640.2</ele><time>2026-04-23T18:27:25.999Z</time></trkpt><trkpt lat="43.618813186213856" lon="11.339927679559528"><ele>640.4</ele><time>2026-04-23T18:27:26.999Z</time></trkpt><trkpt lat="43.61877969338905" lon="11.340083156718245"><ele>640.5999999999999</ele><time>2026-04-23T18:27:28.999Z</time></trkpt><trkpt lat="43.61873970790567" lon="11.34015719018198"><ele>640.8</ele><time>2026-04-23T18:27:29.999Z</time></trkpt><trkpt lat="43.618685063874665" lon="11.340303747472925"><ele>641.0</ele><time>2026-04-23T18:27:31.999Z</time></trkpt><trkpt lat="43.61864442706659" lon="11.340491128119483"><ele>638.8333333333333</ele><time>2026-04-23T18:27:33.999Z</time></trkpt><trkpt lat="43.61863676374956" lon="11.340583391489547"><ele>636.6666666666666</ele><time>2026-04-23T18:27:34.999Z</time></trkpt><trkpt lat="43.61862828258619" lon="11.34078479423716"><ele>634.5</ele><time>2026-04-23T18:27:37Z</time></trkpt><trkpt lat="43.61862926829167" lon="11.340884298905983"><ele>632.3333333333334</ele><time>2026-04-23T18:27:38Z</time></trkpt><trkpt lat="43.618613185241344" lon="11.340977267142557"><ele>630.1666666666667</ele><time>2026-04-23T18:27:39Z</time></trkpt><trkpt lat="43.61859709187738" lon="11.341062018690215"><ele>628.0</ele><time>2026-04-23T18:27:40Z</time></trkpt><trkpt lat="43.618567630606805" lon="11.341229320361993"><ele>628.0</ele><time>2026-04-23T18:27:42Z</time></trkpt><trkpt lat="43.6185590474423" lon="11.341373387159319"><ele>628.0</ele><time>2026-04-23T18:27:44Z</time></trkpt><trkpt lat="43.61853544343743" lon="11.341576861495579"><ele>628.0</ele><time>2026-04-23T18:27:46Z</time></trkpt><trkpt lat="43.618530693323926" lon="11.341682816298217"><ele>628.0</ele><time>2026-04-23T18:27:47Z</time></trkpt><trkpt lat="43.61850827849493" lon="11.341764607776083"><ele>628.0</ele><time>2026-04-23T18:27:48Z</time></trkpt><trkpt lat="43.61848708299582" lon="11.3418486018999"><ele>629.4</ele><time>2026-04-23T18:27:49Z</time></trkpt><trkpt lat="43.61843718355027" lon="11.341986317000176"><ele>630.8</ele><time>2026-04-23T18:27:51Z</time></trkpt><trkpt lat="43.6183709519861" lon="11.342114635763853"><ele>632.2</ele><time>2026-04-23T18:27:53Z</time></trkpt><trkpt lat="43.61829749941266" lon="11.34223599082991"><ele>633.6</ele><time>2026-04-23T18:27:55Z</time></trkpt><trkpt lat="43.618229098139466" lon="11.342336845977025"><ele>635.0</ele><time>2026-04-23T18:27:57Z</time></trkpt><trkpt lat="43.61814561662477" lon="11.342434606020669"><ele>635.3333333333333</ele><time>2026-04-23T18:27:59Z</time></trkpt><trkpt lat="43.61806654487475" lon="11.342540952041999"><ele>635.6666666666666</ele><time>2026-04-23T18:28:01Z</time></trkpt><trkpt lat="43.61804646799774" lon="11.342624764563285"><ele>636.0</ele><time>2026-04-23T18:28:02Z</time></trkpt><trkpt lat="43.61802395257204" lon="11.342732019256912"><ele>636.3333333333334</ele><time>2026-04-23T18:28:03Z</time></trkpt><trkpt lat="43.61799571735059" lon="11.342823193605376"><ele>636.6666666666667</ele><time>2026-04-23T18:28:04Z</time></trkpt><trkpt lat="43.617929636408284" lon="11.342914984365512"><ele>637.0</ele><time>2026-04-23T18:28:06Z</time></trkpt><trkpt lat="43.61786471159066" lon="11.342942190226932"><ele>637.3333333333334</ele><time>2026-04-23T18:28:07Z</time></trkpt><trkpt lat="43.6177946187109" lon="11.342981527210133"><ele>637.6666666666667</ele><time>2026-04-23T18:28:08Z</time></trkpt><trkpt lat="43.617718738498134" lon="11.343052531308718"><ele>638.0</ele><time>2026-04-23T18:28:09Z</time></trkpt><trkpt lat="43.61766512728232" lon="11.343104051362154"><ele>638.3333333333334</ele><time>2026-04-23T18:28:10Z</time></trkpt><trkpt lat="43.617553790781706" lon="11.343183889304019"><ele>638.6666666666666</ele><time>2026-04-23T18:28:12Z</time></trkpt><trkpt lat="43.61750509523636" lon="11.343259681392622"><ele>639.0</ele><time>2026-04-23T18:28:13Z</time></trkpt><trkpt lat="43.6174074783006" lon="11.343344139957038"><ele>639.4</ele><time>2026-04-23T18:28:15Z</time></trkpt><trkpt lat="43.6173019807511" lon="11.343397923396896"><ele>639.8</ele><time>2026-04-23T18:28:17Z</time></trkpt><trkpt lat="43.61725602642835" lon="11.343483030477874"><ele>640.1999999999999</ele><time>2026-04-23T18:28:19Z</time></trkpt><trkpt lat="43.617181809317614" lon="11.3435372940924"><ele>640.5999999999999</ele><time>2026-04-23T18:28:21Z</time></trkpt><trkpt lat="43.61703866225943" lon="11.343507990095478"><ele>641.0</ele><time>2026-04-23T18:28:23Z</time></trkpt><trkpt lat="43.616960796795425" lon="11.343523824644521"><ele>641.0</ele><time>2026-04-23T18:28:24Z</time></trkpt><trkpt lat="43.6168829773632" lon="11.343555763951494"><ele>641.0</ele><time>2026-04-23T18:28:25Z</time></trkpt><trkpt lat="43.616771103063336" lon="11.343643217331666"><ele>641.0</ele><time>2026-04-23T18:28:27Z</time></trkpt><trkpt lat="43.61670207162032" lon="11.34368504020137"><ele>641.0</ele><time>2026-04-23T18:28:28Z</time></trkpt><trkpt lat="43.616634803419224" lon="11.343715868462747"><ele>641.0</ele><time>2026-04-23T18:28:29Z</time></trkpt><trkpt lat="43.61655907095036" lon="11.343799592833433"><ele>642.0</ele><time>2026-04-23T18:28:31Z</time></trkpt><trkpt lat="43.61648996857213" lon="11.343895292499726"><ele>643.0</ele><time>2026-04-23T18:28:33Z</time></trkpt><trkpt lat="43.61640257116883" lon="11.343975707007608"><ele>644.0</ele><time>2026-04-23T18:28:35Z</time></trkpt><trkpt lat="43.61636157762394" lon="11.344046935725817"><ele>645.0</ele><time>2026-04-23T18:28:36Z</time></trkpt><trkpt lat="43.61633905151709" lon="11.3442129771938"><ele>646.0</ele><time>2026-04-23T18:28:38Z</time></trkpt><trkpt lat="43.61630728697495" lon="11.344308204267646"><ele>646.0</ele><time>2026-04-23T18:28:40Z</time></trkpt><trkpt lat="43.61620818427615" lon="11.34439266556952"><ele>646.0</ele><time>2026-04-23T18:28:43Z</time></trkpt><trkpt lat="43.61614489450581" lon="11.344453188761939"><ele>646.0</ele><time>2026-04-23T18:28:45Z</time></trkpt><trkpt lat="43.61606461903759" lon="11.34450704143303"><ele>646.0</ele><time>2026-04-23T18:28:47Z</time></trkpt><trkpt lat="43.615998640024465" lon="11.344559649612682"><ele>646.0</ele><time>2026-04-23T18:28:49Z</time></trkpt><trkpt lat="43.61594281819157" lon="11.344648183534327"><ele>646.0</ele><time>2026-04-23T18:28:51Z</time></trkpt><trkpt lat="43.615878032413235" lon="11.34469650224981"><ele>647.4</ele><time>2026-04-23T18:28:53Z</time></trkpt><trkpt lat="43.61580298367817" lon="11.344722282585758"><ele>648.8</ele><time>2026-04-23T18:28:55Z</time></trkpt><trkpt lat="43.61571792928868" lon="11.344727469447838"><ele>650.1999999999999</ele><time>2026-04-23T18:28:57Z</time></trkpt><trkpt lat="43.615656684306266" lon="11.344794783838108"><ele>651.5999999999999</ele><time>2026-04-23T18:28:59Z</time></trkpt><trkpt lat="43.6156097704442" lon="11.344881383262507"><ele>653.0</ele><time>2026-04-23T18:29:00.999Z</time></trkpt><trkpt lat="43.61549109385867" lon="11.344965618929544"><ele>653.0</ele><time>2026-04-23T18:29:02.999Z</time></trkpt><trkpt lat="43.615425326190355" lon="11.345013189084458"><ele>653.0</ele><time>2026-04-23T18:29:04.999Z</time></trkpt><trkpt lat="43.61535965246667" lon="11.345095620245935"><ele>653.0</ele><time>2026-04-23T18:29:06.999Z</time></trkpt><trkpt lat="43.61530039429093" lon="11.345134162082916"><ele>653.0</ele><time>2026-04-23T18:29:08.999Z</time></trkpt><trkpt lat="43.61521931692523" lon="11.345198633647637"><ele>653.0</ele><time>2026-04-23T18:29:10.999Z</time></trkpt><trkpt lat="43.61512823030543" lon="11.34521316568885"><ele>653.0</ele><time>2026-04-23T18:29:13.999Z</time></trkpt><trkpt lat="43.61507637337802" lon="11.345268870145985"><ele>654.3333333333333</ele><time>2026-04-23T18:29:15.999Z</time></trkpt><trkpt lat="43.61503605923692" lon="11.345342816141194"><ele>655.6666666666666</ele><time>2026-04-23T18:29:19.999Z</time></trkpt><trkpt lat="43.614949106257626" lon="11.345391709620023"><ele>657.0</ele><time>2026-04-23T18:29:28.999Z</time></trkpt><trkpt lat="43.61489403599608" lon="11.34543876344961"><ele>658.3333333333334</ele><time>2026-04-23T18:29:30.999Z</time></trkpt><trkpt lat="43.614855380080954" lon="11.345520830003933"><ele>659.6666666666667</ele><time>2026-04-23T18:29:33.999Z</time></trkpt><trkpt lat="43.614783541726" lon="11.345588155191248"><ele>661.0</ele><time>2026-04-23T18:29:35.999Z</time></trkpt><trkpt lat="43.6147311336681" lon="11.34566203144963"><ele>662.5999999999999</ele><time>2026-04-23T18:29:37.999Z</time></trkpt><trkpt lat="43.61467062836245" lon="11.3457083390221"><ele>664.2</ele><time>2026-04-23T18:29:39.999Z</time></trkpt><trkpt lat="43.6145881508801" lon="11.345777932225747"><ele>665.8</ele><time>2026-04-23T18:29:41.999Z</time></trkpt><trkpt lat="43.61450033129998" lon="11.345881397058362"><ele>667.4000000000001</ele><time>2026-04-23T18:29:44Z</time></trkpt><trkpt lat="43.614446324177955" lon="11.345992618802486"><ele>669.0</ele><time>2026-04-23T18:29:46Z</time></trkpt><trkpt lat="43.61440485156776" lon="11.346144484102"><ele>670.2</ele><time>2026-04-23T18:29:48Z</time></trkpt><trkpt lat="43.61432937180799" lon="11.346230475131977"><ele>671.4000000000001</ele><time>2026-04-23T18:29:50Z</time></trkpt><trkpt lat="43.61425118936374" lon="11.346271952633858"><ele>672.6</ele><time>2026-04-23T18:29:52Z</time></trkpt><trkpt lat="43.614164238596224" lon="11.34622229048994"><ele>673.8</ele><time>2026-04-23T18:29:54Z</time></trkpt><trkpt lat="43.614061874052474" lon="11.346295891749437"><ele>675.0</ele><time>2026-04-23T18:29:56Z</time></trkpt><trkpt lat="43.61394204478904" lon="11.346267536287666"><ele>675.0</ele><time>2026-04-23T18:29:58Z</time></trkpt><trkpt lat="43.61383360673112" lon="11.346294541003207"><ele>675.0</ele><time>2026-04-23T18:30:00Z</time></trkpt><trkpt lat="43.61376778289044" lon="11.346296446256494"><ele>675.0</ele><time>2026-04-23T18:30:01Z</time></trkpt><trkpt lat="43.61365660282887" lon="11.346300856383086"><ele>675.0</ele><time>2026-04-23T18:30:03Z</time></trkpt><trkpt lat="43.61359656033131" lon="11.346340541384425"><ele>675.0</ele><time>2026-04-23T18:30:04Z</time></trkpt><trkpt lat="43.61350869835766" lon="11.346437780529778"><ele>676.4</ele><time>2026-04-23T18:30:06Z</time></trkpt><trkpt lat="43.613428105838516" lon="11.346577913248497"><ele>677.8</ele><time>2026-04-23T18:30:08Z</time></trkpt><trkpt lat="43.61337585779159" lon="11.346627056419157"><ele>679.2</ele><time>2026-04-23T18:30:09Z</time></trkpt><trkpt lat="43.61329260739276" lon="11.346695775400041"><ele>680.6</ele><time>2026-04-23T18:30:11Z</time></trkpt><trkpt lat="43.61320298868637" lon="11.346791733832376"><ele>682.0</ele><time>2026-04-23T18:30:13Z</time></trkpt><trkpt lat="43.61314027527236" lon="11.346834214431315"><ele>682.0</ele><time>2026-04-23T18:30:14Z</time></trkpt><trkpt lat="43.61307400961089" lon="11.346871836020936"><ele>682.0</ele><time>2026-04-23T18:30:15Z</time></trkpt><trkpt lat="43.61298903127012" lon="11.346929970456177"><ele>682.0</ele><time>2026-04-23T18:30:17Z</time></trkpt><trkpt lat="43.612929050117316" lon="11.34699318545494"><ele>682.0</ele><time>2026-04-23T18:30:19Z</time></trkpt><trkpt lat="43.61288167360709" lon="11.347117806438769"><ele>682.0</ele><time>2026-04-23T18:30:21Z</time></trkpt><trkpt lat="43.612833840706344" lon="11.347257543649633"><ele>680.2</ele><time>2026-04-23T18:30:23Z</time></trkpt><trkpt lat="43.61281579493266" lon="11.34734967185621"><ele>678.4000000000001</ele><time>2026-04-23T18:30:24Z</time></trkpt><trkpt lat="43.612788753517194" lon="11.347477712153788"><ele>676.5999999999999</ele><time>2026-04-23T18:30:26Z</time></trkpt><trkpt lat="43.61274833905149" lon="11.34761093945052"><ele>674.8</ele><time>2026-04-23T18:30:28Z</time></trkpt><trkpt lat="43.612728662336345" lon="11.347767328439657"><ele>673.0</ele><time>2026-04-23T18:30:30Z</time></trkpt><trkpt lat="43.61271682207983" lon="11.347896372978097"><ele>673.0</ele><time>2026-04-23T18:30:32Z</time></trkpt><trkpt lat="43.61269920572244" lon="11.34803506900447"><ele>673.0</ele><time>2026-04-23T18:30:34Z</time></trkpt><trkpt lat="43.612704564808986" lon="11.348121770851535"><ele>673.0</ele><time>2026-04-23T18:30:35Z</time></trkpt><trkpt lat="43.6127272942456" lon="11.34822103371028"><ele>673.0</ele><time>2026-04-23T18:30:37Z</time></trkpt><trkpt lat="43.612749957431014" lon="11.348364182917377"><ele>673.0</ele><time>2026-04-23T18:30:39Z</time></trkpt><trkpt lat="43.612762293283474" lon="11.34845328871954"><ele>673.0</ele><time>2026-04-23T18:30:40Z</time></trkpt><trkpt lat="43.61273621050622" lon="11.34861292050394"><ele>674.3333333333334</ele><time>2026-04-23T18:30:42Z</time></trkpt><trkpt lat="43.612708019994294" lon="11.348693266869782"><ele>675.6666666666667</ele><time>2026-04-23T18:30:43Z</time></trkpt><trkpt lat="43.61270376027262" lon="11.34881186346779"><ele>677.0</ele><time>2026-04-23T18:30:45Z</time></trkpt><trkpt lat="43.61270971389361" lon="11.34893291668332"><ele>678.3333333333334</ele><time>2026-04-23T18:30:47Z</time></trkpt><trkpt lat="43.61266496195139" lon="11.349045571876122"><ele>679.6666666666666</ele><time>2026-04-23T18:30:49Z</time></trkpt><trkpt lat="43.612612518288785" lon="11.349158108097626"><ele>681.0</ele><time>2026-04-23T18:30:51Z</time></trkpt><trkpt lat="43.6125593025054" lon="11.349233655744301"><ele>682.4</ele><time>2026-04-23T18:30:53Z</time></trkpt><trkpt lat="43.61251190532307" lon="11.349335885935306"><ele>683.8</ele><time>2026-04-23T18:31:05.999Z</time></trkpt><trkpt lat="43.6124347107249" lon="11.349441026895956"><ele>685.1999999999999</ele><time>2026-04-23T18:31:07.999Z</time></trkpt><trkpt lat="43.612395699425754" lon="11.34954695231198"><ele>686.5999999999999</ele><time>2026-04-23T18:31:09.999Z</time></trkpt><trkpt lat="43.61234513206346" lon="11.34961713973306"><ele>688.0</ele><time>2026-04-23T18:31:11.999Z</time></trkpt><trkpt lat="43.612237683408196" lon="11.349677224292165"><ele>687.4</ele><time>2026-04-23T18:31:14.999Z</time></trkpt><trkpt lat="43.612165602582685" lon="11.3497234711378"><ele>686.8</ele><time>2026-04-23T18:31:16.999Z</time></trkpt><trkpt lat="43.61206894268055" lon="11.349767936467861"><ele>686.2</ele><time>2026-04-23T18:31:18.999Z</time></trkpt><trkpt lat="43.61194507812629" lon="11.349797194061292"><ele>685.6</ele><time>2026-04-23T18:31:20.999Z</time></trkpt><trkpt lat="43.61185203350766" lon="11.349846701877116"><ele>685.0</ele><time>2026-04-23T18:31:22.999Z</time></trkpt><trkpt lat="43.61177505896074" lon="11.349923008913102"><ele>686.8333333333334</ele><time>2026-04-23T18:31:23.999Z</time></trkpt><trkpt lat="43.6117094454479" lon="11.349968224356532"><ele>688.6666666666667</ele><time>2026-04-23T18:31:24.999Z</time></trkpt><trkpt lat="43.61164217594684" lon="11.350016367046761"><ele>690.5</ele><time>2026-04-23T18:31:25.999Z</time></trkpt><trkpt lat="43.61155148472356" lon="11.350127126617958"><ele>692.3333333333334</ele><time>2026-04-23T18:31:27.999Z</time></trkpt><trkpt lat="43.61146463719477" lon="11.350213561921827"><ele>694.1666666666666</ele><time>2026-04-23T18:31:29.999Z</time></trkpt><trkpt lat="43.61139983319715" lon="11.3502371854502"><ele>696.0</ele><time>2026-04-23T18:31:31.999Z</time></trkpt><trkpt lat="43.611335631661014" lon="11.350254294563543"><ele>696.0</ele><time>2026-04-23T18:31:33.999Z</time></trkpt><trkpt lat="43.61124774431233" lon="11.350271839575475"><ele>696.0</ele><time>2026-04-23T18:31:35.999Z</time></trkpt><trkpt lat="43.611151398704244" lon="11.350248501446496"><ele>696.0</ele><time>2026-04-23T18:31:37.999Z</time></trkpt><trkpt lat="43.61104899647608" lon="11.350268013899827"><ele>696.0</ele><time>2026-04-23T18:31:39.999Z</time></trkpt><trkpt lat="43.61094322721268" lon="11.350287570143182"><ele>696.0</ele><time>2026-04-23T18:31:41.999Z</time></trkpt><trkpt lat="43.61083661812595" lon="11.350284779568781"><ele>694.6666666666666</ele><time>2026-04-23T18:31:43.999Z</time></trkpt><trkpt lat="43.61072959545136" lon="11.350353444313619"><ele>693.3333333333334</ele><time>2026-04-23T18:31:45.999Z</time></trkpt><trkpt lat="43.61067108241892" lon="11.350395498721648"><ele>692.0</ele><time>2026-04-23T18:31:46.999Z</time></trkpt><trkpt lat="43.6105970246986" lon="11.350433020129143"><ele>690.6666666666667</ele><time>2026-04-23T18:31:47.999Z</time></trkpt><trkpt lat="43.61053258126221" lon="11.350455324495822"><ele>689.3333333333334</ele><time>2026-04-23T18:31:49Z</time></trkpt><trkpt lat="43.61042049446477" lon="11.350484559721417"><ele>688.0</ele><time>2026-04-23T18:31:51Z</time></trkpt><trkpt lat="43.6103135536156" lon="11.35054747477147"><ele>685.0</ele><time>2026-04-23T18:31:53Z</time></trkpt><trkpt lat="43.61020143224047" lon="11.35062914685189"><ele>682.0</ele><time>2026-04-23T18:31:55Z</time></trkpt><trkpt lat="43.610131638606696" lon="11.350671428942352"><ele>679.0</ele><time>2026-04-23T18:31:56Z</time></trkpt><trkpt lat="43.61005509510088" lon="11.35079768705796"><ele>676.0</ele><time>2026-04-23T18:31:58Z</time></trkpt><trkpt lat="43.610005684106774" lon="11.350899870213372"><ele>673.0</ele><time>2026-04-23T18:32:00Z</time></trkpt><trkpt lat="43.610046547236784" lon="11.35100667892603"><ele>673.0</ele><time>2026-04-23T18:32:02Z</time></trkpt><trkpt lat="43.610003922265754" lon="11.35107454483056"><ele>673.0</ele><time>2026-04-23T18:32:04Z</time></trkpt><trkpt lat="43.60994043487339" lon="11.351053138714116"><ele>673.0</ele><time>2026-04-23T18:32:06Z</time></trkpt><trkpt lat="43.60987731089652" lon="11.351062835283702"><ele>673.0</ele><time>2026-04-23T18:32:08Z</time></trkpt><trkpt lat="43.60980773938016" lon="11.35116430531837"><ele>673.0</ele><time>2026-04-23T18:32:11Z</time></trkpt><trkpt lat="43.609748736044835" lon="11.35123739209947"><ele>673.0</ele><time>2026-04-23T18:32:12Z</time></trkpt><trkpt lat="43.609672212936374" lon="11.351334800758428"><ele>672.6666666666667</ele><time>2026-04-23T18:32:13Z</time></trkpt><trkpt lat="43.60962943198557" lon="11.35140453202723"><ele>672.3333333333334</ele><time>2026-04-23T18:32:14Z</time></trkpt><trkpt lat="43.60954146063028" lon="11.351487245852287"><ele>672.0</ele><time>2026-04-23T18:32:16Z</time></trkpt><trkpt lat="43.60947252275189" lon="11.351538599597925"><ele>671.6666666666666</ele><time>2026-04-23T18:32:17Z</time></trkpt><trkpt lat="43.609428964180644" lon="11.351604350190506"><ele>671.3333333333333</ele><time>2026-04-23T18:32:18Z</time></trkpt><trkpt lat="43.60935425547565" lon="11.351692367933476"><ele>671.0</ele><time>2026-04-23T18:32:20Z</time></trkpt><trkpt lat="43.60930848670406" lon="11.35175404676801"><ele>672.1666666666666</ele><time>2026-04-23T18:32:22Z</time></trkpt><trkpt lat="43.60925338988776" lon="11.351885132056566"><ele>673.3333333333333</ele><time>2026-04-23T18:32:24Z</time></trkpt><trkpt lat="43.60924833120111" lon="11.351995102846766"><ele>674.5</ele><time>2026-04-23T18:32:40Z</time></trkpt><trkpt lat="43.6091811892204" lon="11.351978124570062"><ele>675.6666666666666</ele><time>2026-04-23T18:32:42Z</time></trkpt><trkpt lat="43.609116309661914" lon="11.351969562968286"><ele>676.8333333333334</ele><time>2026-04-23T18:32:44Z</time></trkpt><trkpt lat="43.60902235475476" lon="11.35200611711087"><ele>678.0</ele><time>2026-04-23T18:32:46Z</time></trkpt><trkpt lat="43.60891613896224" lon="11.352041454736977"><ele>678.0</ele><time>2026-04-23T18:32:48Z</time></trkpt><trkpt lat="43.60884931480941" lon="11.352054164852909"><ele>678.0</ele><time>2026-04-23T18:32:49Z</time></trkpt><trkpt lat="43.60878687931964" lon="11.352081694941635"><ele>678.0</ele><time>2026-04-23T18:32:50Z</time></trkpt><trkpt lat="43.60872463213895" lon="11.352115522822919"><ele>678.0</ele><time>2026-04-23T18:32:51Z</time></trkpt><trkpt lat="43.60863908600187" lon="11.352189572941686"><ele>678.0</ele><time>2026-04-23T18:32:53Z</time></trkpt><trkpt lat="43.6085910059808" lon="11.352249141643545"><ele>678.0</ele><time>2026-04-23T18:32:54Z</time></trkpt><trkpt lat="43.608528744197216" lon="11.352294020432243"><ele>678.0</ele><time>2026-04-23T18:32:55Z</time></trkpt><trkpt lat="43.60841831486843" lon="11.352288482366982"><ele>677.6666666666666</ele><time>2026-04-23T18:32:57Z</time></trkpt><trkpt lat="43.60835352360447" lon="11.352302312489092"><ele>677.3333333333334</ele><time>2026-04-23T18:32:58Z</time></trkpt><trkpt lat="43.608290586029156" lon="11.352332615029061"><ele>677.0</ele><time>2026-04-23T18:32:59Z</time></trkpt><trkpt lat="43.60821033323635" lon="11.352415330330013"><ele>676.6666666666667</ele><time>2026-04-23T18:33:01Z</time></trkpt><trkpt lat="43.60813612640837" lon="11.352514805320016"><ele>676.3333333333334</ele><time>2026-04-23T18:33:03Z</time></trkpt><trkpt lat="43.6080671735857" lon="11.352611845729584"><ele>676.0</ele><time>2026-04-23T18:33:05Z</time></trkpt><trkpt lat="43.607961401056116" lon="11.352634861083123"><ele>676.0</ele><time>2026-04-23T18:33:06.999Z</time></trkpt><trkpt lat="43.60788578543835" lon="11.352662382882336"><ele>676.0</ele><time>2026-04-23T18:33:08.999Z</time></trkpt><trkpt lat="43.60778236185399" lon="11.352702170144076"><ele>676.0</ele><time>2026-04-23T18:33:10.999Z</time></trkpt><trkpt lat="43.607699572589325" lon="11.352739326864706"><ele>676.0</ele><time>2026-04-23T18:33:12.999Z</time></trkpt><trkpt lat="43.60764225923575" lon="11.352817581693612"><ele>676.0</ele><time>2026-04-23T18:33:15.999Z</time></trkpt><trkpt lat="43.60758091640485" lon="11.352892240366279"><ele>676.0</ele><time>2026-04-23T18:33:19.999Z</time></trkpt><trkpt lat="43.60751373080886" lon="11.352926015295264"><ele>674.3333333333334</ele><time>2026-04-23T18:33:22.999Z</time></trkpt><trkpt lat="43.60746446145547" lon="11.35301004577308"><ele>672.6666666666667</ele><time>2026-04-23T18:33:25.999Z</time></trkpt><trkpt lat="43.607407791464915" lon="11.353089185017097"><ele>671.0</ele><time>2026-04-23T18:33:27.999Z</time></trkpt><trkpt lat="43.60739625334483" lon="11.353193129703145"><ele>669.3333333333334</ele><time>2026-04-23T18:33:29.999Z</time></trkpt><trkpt lat="43.607422217991555" lon="11.353329053640289"><ele>667.6666666666666</ele><time>2026-04-23T18:33:31.999Z</time></trkpt><trkpt lat="43.60745628797188" lon="11.353473153514619"><ele>666.0</ele><time>2026-04-23T18:33:33.999Z</time></trkpt><trkpt lat="43.60752114229819" lon="11.353604272480137"><ele>665.1666666666666</ele><time>2026-04-23T18:33:35.999Z</time></trkpt><trkpt lat="43.60761349916205" lon="11.353706243677733"><ele>664.3333333333334</ele><time>2026-04-23T18:33:37.999Z</time></trkpt><trkpt lat="43.60766415124211" lon="11.353778702003572"><ele>663.5</ele><time>2026-04-23T18:33:39.999Z</time></trkpt><trkpt lat="43.60770562042823" lon="11.353848054805539"><ele>662.6666666666667</ele><time>2026-04-23T18:33:41.999Z</time></trkpt><trkpt lat="43.60774285076825" lon="11.353935966078756"><ele>661.8333333333334</ele><time>2026-04-23T18:33:43.999Z</time></trkpt><trkpt lat="43.60774012341637" lon="11.354038774064067"><ele>661.0</ele><time>2026-04-23T18:33:45.999Z</time></trkpt><trkpt lat="43.6076794534608" lon="11.354139416740917"><ele>659.1666666666667</ele><time>2026-04-23T18:33:47.999Z</time></trkpt><trkpt lat="43.60760747999599" lon="11.354218793930833"><ele>657.3333333333334</ele><time>2026-04-23T18:33:49.999Z</time></trkpt><trkpt lat="43.60753621662945" lon="11.354280702762228"><ele>655.5</ele><time>2026-04-23T18:33:51.999Z</time></trkpt><trkpt lat="43.6074552119055" lon="11.35432283847906"><ele>653.6666666666666</ele><time>2026-04-23T18:33:53.999Z</time></trkpt><trkpt lat="43.6073690542425" lon="11.354325041681887"><ele>651.8333333333333</ele><time>2026-04-23T18:33:56Z</time></trkpt><trkpt lat="43.607276833850726" lon="11.354335982399766"><ele>650.0</ele><time>2026-04-23T18:33:59Z</time></trkpt><trkpt lat="43.60722417371132" lon="11.35440546237647"><ele>650.0</ele><time>2026-04-23T18:34:01Z</time></trkpt><trkpt lat="43.607180406167224" lon="11.354472270460812"><ele>650.0</ele><time>2026-04-23T18:34:03Z</time></trkpt><trkpt lat="43.60710743325596" lon="11.354521921001746"><ele>650.0</ele><time>2026-04-23T18:34:05Z</time></trkpt><trkpt lat="43.607044091934405" lon="11.354581712816557"><ele>650.0</ele><time>2026-04-23T18:34:07Z</time></trkpt><trkpt lat="43.60697131660862" lon="11.354606096135118"><ele>650.0</ele><time>2026-04-23T18:34:09Z</time></trkpt><trkpt lat="43.606889000346314" lon="11.354625817848344"><ele>650.0</ele><time>2026-04-23T18:34:11Z</time></trkpt><trkpt lat="43.606797553097245" lon="11.354630147110973"><ele>648.6666666666666</ele><time>2026-04-23T18:34:14Z</time></trkpt><trkpt lat="43.60671932424327" lon="11.354655536776878"><ele>647.3333333333333</ele><time>2026-04-23T18:34:16Z</time></trkpt><trkpt lat="43.60662326879545" lon="11.354656578997945"><ele>646.0</ele><time>2026-04-23T18:34:19Z</time></trkpt><trkpt lat="43.606559950568986" lon="11.354667017011973"><ele>644.6666666666666</ele><time>2026-04-23T18:34:20Z</time></trkpt><trkpt lat="43.60647118411521" lon="11.35466946107176"><ele>643.3333333333334</ele><time>2026-04-23T18:34:22Z</time></trkpt><trkpt lat="43.60637561708307" lon="11.354661450970015"><ele>642.0</ele><time>2026-04-23T18:34:24Z</time></trkpt><trkpt lat="43.60629276215563" lon="11.354685378149384"><ele>642.0</ele><time>2026-04-23T18:34:26Z</time></trkpt><trkpt lat="43.60620214611979" lon="11.35465171973489"><ele>642.0</ele><time>2026-04-23T18:34:28Z</time></trkpt><trkpt lat="43.606102623776934" lon="11.354610769063143"><ele>642.0</ele><time>2026-04-23T18:34:30Z</time></trkpt><trkpt lat="43.60602358463853" lon="11.354523090809483"><ele>642.0</ele><time>2026-04-23T18:34:33Z</time></trkpt><trkpt lat="43.60598909426058" lon="11.354419829002763"><ele>642.0</ele><time>2026-04-23T18:34:35Z</time></trkpt><trkpt lat="43.6059271290806" lon="11.354350613355075"><ele>638.2</ele><time>2026-04-23T18:34:39Z</time></trkpt><trkpt lat="43.6058359764084" lon="11.354379800391746"><ele>634.4000000000001</ele><time>2026-04-23T18:34:42Z</time></trkpt><trkpt lat="43.605739533555045" lon="11.354419107020394"><ele>630.5999999999999</ele><time>2026-04-23T18:34:45Z</time></trkpt><trkpt lat="43.60566326737949" lon="11.354459528740383"><ele>626.8</ele><time>2026-04-23T18:34:48Z</time></trkpt><trkpt lat="43.60557935446535" lon="11.354443663310697"><ele>623.0</ele><time>2026-04-23T18:34:51Z</time></trkpt><trkpt lat="43.60549816681047" lon="11.35452752089593"><ele>623.0</ele><time>2026-04-23T18:34:53Z</time></trkpt><trkpt lat="43.60544250291139" lon="11.354571885602669"><ele>623.0</ele><time>2026-04-23T18:34:54Z</time></trkpt><trkpt lat="43.6053565442199" lon="11.354625431712067"><ele>623.0</ele><time>2026-04-23T18:34:56Z</time></trkpt><trkpt lat="43.605293442985776" lon="11.35471528486949"><ele>623.0</ele><time>2026-04-23T18:34:58Z</time></trkpt><trkpt lat="43.6053138460455" lon="11.354841993545064"><ele>623.0</ele><time>2026-04-23T18:34:59.999Z</time></trkpt><trkpt lat="43.60541095809896" lon="11.354948307046556"><ele>622.5</ele><time>2026-04-23T18:35:01.999Z</time></trkpt><trkpt lat="43.60547406114821" lon="11.355014050682845"><ele>622.0</ele><time>2026-04-23T18:35:02.999Z</time></trkpt><trkpt lat="43.60554449816793" lon="11.355093452997211"><ele>621.5</ele><time>2026-04-23T18:35:03.999Z</time></trkpt><trkpt lat="43.605599543067626" lon="11.355171924583704"><ele>621.0</ele><time>2026-04-23T18:35:04.999Z</time></trkpt><trkpt lat="43.605652055757425" lon="11.355245000664128"><ele>620.5</ele><time>2026-04-23T18:35:05.999Z</time></trkpt><trkpt lat="43.60571007262056" lon="11.355301358576734"><ele>620.0</ele><time>2026-04-23T18:35:06.999Z</time></trkpt><trkpt lat="43.605770790285206" lon="11.355341460408011"><ele>620.0</ele><time>2026-04-23T18:35:07.999Z</time></trkpt><trkpt lat="43.60583933275346" lon="11.355374154101446"><ele>620.0</ele><time>2026-04-23T18:35:08.999Z</time></trkpt><trkpt lat="43.60591072899317" lon="11.355428104976932"><ele>620.0</ele><time>2026-04-23T18:35:09.999Z</time></trkpt><trkpt lat="43.6060004442098" lon="11.355500571460542"><ele>620.0</ele><time>2026-04-23T18:35:10.999Z</time></trkpt><trkpt lat="43.606089407615826" lon="11.355595078104272"><ele>620.0</ele><time>2026-04-23T18:35:11.999Z</time></trkpt><trkpt lat="43.60620904809992" lon="11.355687604347176"><ele>618.2</ele><time>2026-04-23T18:35:12.999Z</time></trkpt><trkpt lat="43.60630194350069" lon="11.355761874908728"><ele>616.4</ele><time>2026-04-23T18:35:13.999Z</time></trkpt><trkpt lat="43.60638381368972" lon="11.355826985929244"><ele>614.6</ele><time>2026-04-23T18:35:14.999Z</time></trkpt><trkpt lat="43.606461585338984" lon="11.355883803966123"><ele>612.8</ele><time>2026-04-23T18:35:15.999Z</time></trkpt><trkpt lat="43.606535768925" lon="11.35593568443736"><ele>611.0</ele><time>2026-04-23T18:35:16.999Z</time></trkpt><trkpt lat="43.60661224249672" lon="11.355988220911405"><ele>611.0</ele><time>2026-04-23T18:35:17.999Z</time></trkpt><trkpt lat="43.60668551462234" lon="11.356037842828027"><ele>611.0</ele><time>2026-04-23T18:35:18.999Z</time></trkpt><trkpt lat="43.60675670515592" lon="11.356084303582822"><ele>611.0</ele><time>2026-04-23T18:35:19.999Z</time></trkpt><trkpt lat="43.606830460176994" lon="11.356140202548039"><ele>611.0</ele><time>2026-04-23T18:35:20.999Z</time></trkpt><trkpt lat="43.606900237931065" lon="11.356180482595327"><ele>611.0</ele><time>2026-04-23T18:35:21.999Z</time></trkpt><trkpt lat="43.60694631132305" lon="11.35625400448841"><ele>611.0</ele><time>2026-04-23T18:35:22.999Z</time></trkpt><trkpt lat="43.60696881654295" lon="11.356433532648808"><ele>608.6666666666666</ele><time>2026-04-23T18:35:24.999Z</time></trkpt><trkpt lat="43.60694133795393" lon="11.35654571744793"><ele>606.3333333333333</ele><time>2026-04-23T18:35:25.999Z</time></trkpt><trkpt lat="43.60687246675452" lon="11.356631336221287"><ele>604.0</ele><time>2026-04-23T18:35:26.999Z</time></trkpt><trkpt lat="43.60681173563737" lon="11.356705652205004"><ele>601.6666666666666</ele><time>2026-04-23T18:35:27.999Z</time></trkpt><trkpt lat="43.60675013674363" lon="11.356768074869722"><ele>599.3333333333334</ele><time>2026-04-23T18:35:28.999Z</time></trkpt><trkpt lat="43.60667037270932" lon="11.356818883895986"><ele>597.0</ele><time>2026-04-23T18:35:29.999Z</time></trkpt><trkpt lat="43.60660825437681" lon="11.356886164826529"><ele>597.0</ele><time>2026-04-23T18:35:30.999Z</time></trkpt><trkpt lat="43.60654528827766" lon="11.356925329465932"><ele>597.0</ele><time>2026-04-23T18:35:31.999Z</time></trkpt><trkpt lat="43.606485892152165" lon="11.356977204260199"><ele>597.0</ele><time>2026-04-23T18:35:32.999Z</time></trkpt><trkpt lat="43.60642770349929" lon="11.357051768145782"><ele>597.0</ele><time>2026-04-23T18:35:33.999Z</time></trkpt><trkpt lat="43.60637248776017" lon="11.357140121954735"><ele>597.0</ele><time>2026-04-23T18:35:34.999Z</time></trkpt><trkpt lat="43.60630420176958" lon="11.357236095254839"><ele>597.0</ele><time>2026-04-23T18:35:35.999Z</time></trkpt><trkpt lat="43.60624259085076" lon="11.357324614951288"><ele>596.8571428571429</ele><time>2026-04-23T18:35:36.999Z</time></trkpt><trkpt lat="43.60618610055499" lon="11.357400407260132"><ele>596.7142857142858</ele><time>2026-04-23T18:35:37.999Z</time></trkpt><trkpt lat="43.60613314330909" lon="11.357469708570466"><ele>596.5714285714286</ele><time>2026-04-23T18:35:38.999Z</time></trkpt><trkpt lat="43.6060807812678" lon="11.357534497131933"><ele>596.4285714285714</ele><time>2026-04-23T18:35:39.999Z</time></trkpt><trkpt lat="43.60602810774306" lon="11.35759063781072"><ele>596.2857142857142</ele><time>2026-04-23T18:35:40.999Z</time></trkpt><trkpt lat="43.605982052404876" lon="11.357669002027599"><ele>596.1428571428571</ele><time>2026-04-23T18:35:41.999Z</time></trkpt><trkpt lat="43.605937282310364" lon="11.357746848794882"><ele>596.0</ele><time>2026-04-23T18:35:42.999Z</time></trkpt><trkpt lat="43.60589175418022" lon="11.357816251782454"><ele>594.0</ele><time>2026-04-23T18:35:43.999Z</time></trkpt><trkpt lat="43.605834980967686" lon="11.357870785276925"><ele>592.0</ele><time>2026-04-23T18:35:44.999Z</time></trkpt><trkpt lat="43.605770839304896" lon="11.35793035010698"><ele>590.0</ele><time>2026-04-23T18:35:45.999Z</time></trkpt><trkpt lat="43.60569800740481" lon="11.357987572562935"><ele>588.0</ele><time>2026-04-23T18:35:46.999Z</time></trkpt><trkpt lat="43.60563465280751" lon="11.358034224194526"><ele>586.0</ele><time>2026-04-23T18:35:47.999Z</time></trkpt><trkpt lat="43.60555573428144" lon="11.358057670331279"><ele>584.0</ele><time>2026-04-23T18:35:48.999Z</time></trkpt><trkpt lat="43.60548470167821" lon="11.35812308628337"><ele>583.2</ele><time>2026-04-23T18:35:49.999Z</time></trkpt><trkpt lat="43.60541016181559" lon="11.35817887682558"><ele>582.4</ele><time>2026-04-23T18:35:50.999Z</time></trkpt><trkpt lat="43.60530112287467" lon="11.35824510046637"><ele>581.6</ele><time>2026-04-23T18:35:51.999Z</time></trkpt><trkpt lat="43.605205867953586" lon="11.358313849241265"><ele>580.8</ele><time>2026-04-23T18:35:52.999Z</time></trkpt><trkpt lat="43.60511656901691" lon="11.358367955704024"><ele>580.0</ele><time>2026-04-23T18:35:53.999Z</time></trkpt><trkpt lat="43.60502633216727" lon="11.358437726655644"><ele>578.2</ele><time>2026-04-23T18:35:54.999Z</time></trkpt><trkpt lat="43.604943599860775" lon="11.358492109877494"><ele>576.4</ele><time>2026-04-23T18:35:55.999Z</time></trkpt><trkpt lat="43.60485586505358" lon="11.358542796253879"><ele>574.6</ele><time>2026-04-23T18:35:56.999Z</time></trkpt><trkpt lat="43.60476996242092" lon="11.358584689808735"><ele>572.8</ele><time>2026-04-23T18:35:57.999Z</time></trkpt><trkpt lat="43.60468860633613" lon="11.35861974277503"><ele>571.0</ele><time>2026-04-23T18:35:58.999Z</time></trkpt><trkpt lat="43.60459660732674" lon="11.358656892031899"><ele>568.6</ele><time>2026-04-23T18:35:59.999Z</time></trkpt><trkpt lat="43.60449292595074" lon="11.358699884068"><ele>566.2</ele><time>2026-04-23T18:36:01Z</time></trkpt><trkpt lat="43.60439665551572" lon="11.358745026171693"><ele>563.8</ele><time>2026-04-23T18:36:02Z</time></trkpt><trkpt lat="43.60430514201217" lon="11.358779179764019"><ele>561.4</ele><time>2026-04-23T18:36:03Z</time></trkpt><trkpt lat="43.60421200737068" lon="11.358803660451889"><ele>559.0</ele><time>2026-04-23T18:36:04Z</time></trkpt><trkpt lat="43.6041249030142" lon="11.358839531549656"><ele>559.2</ele><time>2026-04-23T18:36:05Z</time></trkpt><trkpt lat="43.60403161183951" lon="11.35886957062651"><ele>559.4</ele><time>2026-04-23T18:36:06Z</time></trkpt><trkpt lat="43.603928070018604" lon="11.35890871822725"><ele>559.6</ele><time>2026-04-23T18:36:07Z</time></trkpt><trkpt lat="43.603834029242115" lon="11.358949954876818"><ele>559.8</ele><time>2026-04-23T18:36:08Z</time></trkpt><trkpt lat="43.60374331592888" lon="11.358988457667058"><ele>560.0</ele><time>2026-04-23T18:36:09Z</time></trkpt><trkpt lat="43.6036499212993" lon="11.359029086506771"><ele>560.0</ele><time>2026-04-23T18:36:10Z</time></trkpt><trkpt lat="43.60355511482712" lon="11.35906727477329"><ele>560.0</ele><time>2026-04-23T18:36:11Z</time></trkpt><trkpt lat="43.60345452183844" lon="11.359096645150943"><ele>560.0</ele><time>2026-04-23T18:36:12Z</time></trkpt><trkpt lat="43.603351467725666" lon="11.359087045976958"><ele>560.0</ele><time>2026-04-23T18:36:13Z</time></trkpt><trkpt lat="43.60324962695006" lon="11.359111794425724"><ele>560.0</ele><time>2026-04-23T18:36:14Z</time></trkpt><trkpt lat="43.603147994148756" lon="11.359099890041339"><ele>560.0</ele><time>2026-04-23T18:36:15Z</time></trkpt><trkpt lat="43.603052877323876" lon="11.35911508927454"><ele>560.0</ele><time>2026-04-23T18:36:16Z</time></trkpt><trkpt lat="43.60296712849837" lon="11.359137192002363"><ele>560.0</ele><time>2026-04-23T18:36:17Z</time></trkpt><trkpt lat="43.602865153535795" lon="11.359164654502228"><ele>560.0</ele><time>2026-04-23T18:36:18Z</time></trkpt><trkpt lat="43.602759163567434" lon="11.359193816663952"><ele>560.0</ele><time>2026-04-23T18:36:19Z</time></trkpt><trkpt lat="43.602653128245564" lon="11.35922245412036"><ele>558.6</ele><time>2026-04-23T18:36:20Z</time></trkpt><trkpt lat="43.60255539625434" lon="11.359268635414956"><ele>557.2</ele><time>2026-04-23T18:36:21Z</time></trkpt><trkpt lat="43.60245905735747" lon="11.359288511339432"><ele>555.8</ele><time>2026-04-23T18:36:22Z</time></trkpt><trkpt lat="43.6023670327397" lon="11.35931334400919"><ele>554.4</ele><time>2026-04-23T18:36:23Z</time></trkpt><trkpt lat="43.60228116320251" lon="11.359336163905047"><ele>553.0</ele><time>2026-04-23T18:36:24Z</time></trkpt><trkpt lat="43.60220517895384" lon="11.359351671817867"><ele>553.0</ele><time>2026-04-23T18:36:25Z</time></trkpt><trkpt lat="43.602126045518716" lon="11.359389992110467"><ele>553.0</ele><time>2026-04-23T18:36:26Z</time></trkpt><trkpt lat="43.602057032848066" lon="11.359446374631249"><ele>553.0</ele><time>2026-04-23T18:36:27Z</time></trkpt><trkpt lat="43.60198213559734" lon="11.359512639472369"><ele>553.0</ele><time>2026-04-23T18:36:28Z</time></trkpt><trkpt lat="43.60191271880878" lon="11.359601795128823"><ele>553.0</ele><time>2026-04-23T18:36:29Z</time></trkpt><trkpt lat="43.60184155780608" lon="11.359710749347581"><ele>552.4</ele><time>2026-04-23T18:36:30Z</time></trkpt><trkpt lat="43.60176426931299" lon="11.359825939469815"><ele>551.8</ele><time>2026-04-23T18:36:31Z</time></trkpt><trkpt lat="43.601668152624384" lon="11.35991084708989"><ele>551.2</ele><time>2026-04-23T18:36:32Z</time></trkpt><trkpt lat="43.60157949489386" lon="11.36000872599367"><ele>550.6</ele><time>2026-04-23T18:36:33Z</time></trkpt><trkpt lat="43.60149911990605" lon="11.360089348094197"><ele>550.0</ele><time>2026-04-23T18:36:34Z</time></trkpt><trkpt lat="43.60142812260826" lon="11.360175936195926"><ele>550.0</ele><time>2026-04-23T18:36:35Z</time></trkpt><trkpt lat="43.601375690490116" lon="11.360274930485417"><ele>550.0</ele><time>2026-04-23T18:36:36Z</time></trkpt><trkpt lat="43.60132631786557" lon="11.360380763970113"><ele>550.0</ele><time>2026-04-23T18:36:37Z</time></trkpt><trkpt lat="43.601277743847504" lon="11.360497295937666"><ele>550.0</ele><time>2026-04-23T18:36:38Z</time></trkpt><trkpt lat="43.60124308974674" lon="11.360651011701542"><ele>550.0</ele><time>2026-04-23T18:36:39Z</time></trkpt><trkpt lat="43.60118966409338" lon="11.360813986707358"><ele>548.0</ele><time>2026-04-23T18:36:40Z</time></trkpt><trkpt lat="43.601131688792286" lon="11.360969759807313"><ele>546.0</ele><time>2026-04-23T18:36:41Z</time></trkpt><trkpt lat="43.60108206405434" lon="11.361107371723623"><ele>544.0</ele><time>2026-04-23T18:36:42Z</time></trkpt><trkpt lat="43.60101013961959" lon="11.361200725328027"><ele>542.0</ele><time>2026-04-23T18:36:43Z</time></trkpt><trkpt lat="43.60094342872509" lon="11.361291780433392"><ele>540.0</ele><time>2026-04-23T18:36:44Z</time></trkpt><trkpt lat="43.60086974605159" lon="11.36137099917072"><ele>540.0</ele><time>2026-04-23T18:36:45Z</time></trkpt><trkpt lat="43.60078835959693" lon="11.361430878901368"><ele>540.0</ele><time>2026-04-23T18:36:46Z</time></trkpt><trkpt lat="43.600702663098915" lon="11.361498596217782"><ele>540.0</ele><time>2026-04-23T18:36:47Z</time></trkpt><trkpt lat="43.600615246204434" lon="11.361567672871972"><ele>540.0</ele><time>2026-04-23T18:36:48Z</time></trkpt><trkpt lat="43.600532278727115" lon="11.36163420667023"><ele>540.0</ele><time>2026-04-23T18:36:49Z</time></trkpt><trkpt lat="43.600451550296825" lon="11.36170312024305"><ele>540.0</ele><time>2026-04-23T18:36:50Z</time></trkpt><trkpt lat="43.60038468726392" lon="11.361785247254826"><ele>540.0</ele><time>2026-04-23T18:36:51Z</time></trkpt><trkpt lat="43.60030408350333" lon="11.361851480346527"><ele>540.0</ele><time>2026-04-23T18:36:52Z</time></trkpt><trkpt lat="43.6002302782128" lon="11.361940803837973"><ele>540.0</ele><time>2026-04-23T18:36:53Z</time></trkpt><trkpt lat="43.60016417329946" lon="11.362035324029867"><ele>540.0</ele><time>2026-04-23T18:36:54Z</time></trkpt><trkpt lat="43.60008617705051" lon="11.362118447252099"><ele>539.6</ele><time>2026-04-23T18:36:55Z</time></trkpt><trkpt lat="43.600027534619635" lon="11.362239116092086"><ele>539.2</ele><time>2026-04-23T18:36:56Z</time></trkpt><trkpt lat="43.599951424905456" lon="11.362324840146002"><ele>538.8</ele><time>2026-04-23T18:36:57Z</time></trkpt><trkpt lat="43.59987818346334" lon="11.362433176928393"><ele>538.4</ele><time>2026-04-23T18:36:58Z</time></trkpt><trkpt lat="43.5998086497294" lon="11.362535289559974"><ele>538.0</ele><time>2026-04-23T18:36:59Z</time></trkpt><trkpt lat="43.59974868702123" lon="11.362623346852406"><ele>538.0</ele><time>2026-04-23T18:37:00Z</time></trkpt><trkpt lat="43.59968943113327" lon="11.362710366127699"><ele>538.0</ele><time>2026-04-23T18:37:01Z</time></trkpt><trkpt lat="43.599633597879304" lon="11.362790556346788"><ele>538.0</ele><time>2026-04-23T18:37:02Z</time></trkpt><trkpt lat="43.599581130438374" lon="11.362864330829272"><ele>538.0</ele><time>2026-04-23T18:37:03Z</time></trkpt><trkpt lat="43.59951637751983" lon="11.362958172402767"><ele>538.0</ele><time>2026-04-23T18:37:04Z</time></trkpt><trkpt lat="43.599453948619164" lon="11.3630447382517"><ele>538.0</ele><time>2026-04-23T18:37:05Z</time></trkpt><trkpt lat="43.59939471172104" lon="11.36311815722179"><ele>537.5</ele><time>2026-04-23T18:37:05.999Z</time></trkpt><trkpt lat="43.599334170048365" lon="11.363189654503854"><ele>537.0</ele><time>2026-04-23T18:37:06.999Z</time></trkpt><trkpt lat="43.59928207617708" lon="11.3632694425069"><ele>536.5</ele><time>2026-04-23T18:37:07.999Z</time></trkpt><trkpt lat="43.59920622906663" lon="11.36331690060402"><ele>536.0</ele><time>2026-04-23T18:37:08.999Z</time></trkpt><trkpt lat="43.59911249409072" lon="11.363346144277331"><ele>535.5</ele><time>2026-04-23T18:37:09.999Z</time></trkpt><trkpt lat="43.599015607076076" lon="11.363397449330392"><ele>535.0</ele><time>2026-04-23T18:37:10.999Z</time></trkpt><trkpt lat="43.59893299710699" lon="11.363442660095165"><ele>535.0</ele><time>2026-04-23T18:37:11.999Z</time></trkpt><trkpt lat="43.59885418925911" lon="11.363484932292938"><ele>535.0</ele><time>2026-04-23T18:37:12.999Z</time></trkpt><trkpt lat="43.59877542176762" lon="11.363526711216133"><ele>535.0</ele><time>2026-04-23T18:37:13.999Z</time></trkpt><trkpt lat="43.59869392405536" lon="11.363569938273741"><ele>535.0</ele><time>2026-04-23T18:37:14.999Z</time></trkpt><trkpt lat="43.59861439706512" lon="11.363612783466992"><ele>535.0</ele><time>2026-04-23T18:37:15.999Z</time></trkpt><trkpt lat="43.598538598117294" lon="11.363676202088657"><ele>535.0</ele><time>2026-04-23T18:37:16.999Z</time></trkpt><trkpt lat="43.59846499136272" lon="11.363715980830058"><ele>534.4</ele><time>2026-04-23T18:37:17.999Z</time></trkpt><trkpt lat="43.59839829432299" lon="11.36375209941917"><ele>533.8</ele><time>2026-04-23T18:37:18.999Z</time></trkpt><trkpt lat="43.59829868736925" lon="11.363793517268062"><ele>533.2</ele><time>2026-04-23T18:37:20.999Z</time></trkpt><trkpt lat="43.59823092008127" lon="11.363789356875914"><ele>532.6</ele><time>2026-04-23T18:37:22.999Z</time></trkpt><trkpt lat="43.59816359787903" lon="11.363617412682425"><ele>532.0</ele><time>2026-04-23T18:37:24.999Z</time></trkpt><trkpt lat="43.598129082039435" lon="11.363526991402344"><ele>532.0</ele><time>2026-04-23T18:37:25.999Z</time></trkpt><trkpt lat="43.59809008345702" lon="11.363438490727285"><ele>532.0</ele><time>2026-04-23T18:37:26.999Z</time></trkpt><trkpt lat="43.59804255218842" lon="11.363355117895118"><ele>532.0</ele><time>2026-04-23T18:37:27.999Z</time></trkpt><trkpt lat="43.59797922499982" lon="11.363286377051278"><ele>532.0</ele><time>2026-04-23T18:37:28.999Z</time></trkpt><trkpt lat="43.59790141056167" lon="11.363228512022372"><ele>532.0</ele><time>2026-04-23T18:37:29.999Z</time></trkpt><trkpt lat="43.59782712602907" lon="11.363184933682248"><ele>532.0</ele><time>2026-04-23T18:37:30.999Z</time></trkpt><trkpt lat="43.59773838088951" lon="11.36314835560109"><ele>532.0</ele><time>2026-04-23T18:37:31.999Z</time></trkpt><trkpt lat="43.59764737205981" lon="11.363120038082476"><ele>532.0</ele><time>2026-04-23T18:37:32.999Z</time></trkpt><trkpt lat="43.597558617563756" lon="11.363093255045015"><ele>532.0</ele><time>2026-04-23T18:37:33.999Z</time></trkpt><trkpt lat="43.59746881812543" lon="11.363064977484239"><ele>532.0</ele><time>2026-04-23T18:37:34.999Z</time></trkpt><trkpt lat="43.597377339179204" lon="11.363037593367702"><ele>532.0</ele><time>2026-04-23T18:37:35.999Z</time></trkpt><trkpt lat="43.597284815761704" lon="11.363009039564794"><ele>530.8000000000001</ele><time>2026-04-23T18:37:36.999Z</time></trkpt><trkpt lat="43.59719739053982" lon="11.362972384701138"><ele>529.6</ele><time>2026-04-23T18:37:37.999Z</time></trkpt><trkpt lat="43.59711078992863" lon="11.362942511582439"><ele>528.4000000000001</ele><time>2026-04-23T18:37:38.999Z</time></trkpt><trkpt lat="43.59702020792095" lon="11.36290215049974"><ele>527.2</ele><time>2026-04-23T18:37:39.999Z</time></trkpt><trkpt lat="43.596934603680786" lon="11.362847118172905"><ele>526.0</ele><time>2026-04-23T18:37:40.999Z</time></trkpt><trkpt lat="43.596851388660745" lon="11.362768755362293"><ele>526.0</ele><time>2026-04-23T18:37:41.999Z</time></trkpt><trkpt lat="43.596792081717595" lon="11.362669380372443"><ele>526.0</ele><time>2026-04-23T18:37:42.999Z</time></trkpt><trkpt lat="43.596742712776276" lon="11.36255237496668"><ele>526.0</ele><time>2026-04-23T18:37:43.999Z</time></trkpt><trkpt lat="43.59670582142095" lon="11.36242608695108"><ele>526.0</ele><time>2026-04-23T18:37:44.999Z</time></trkpt><trkpt lat="43.59666572186992" lon="11.362312335398439"><ele>526.0</ele><time>2026-04-23T18:37:45.999Z</time></trkpt><trkpt lat="43.596610400676724" lon="11.362211274369647"><ele>521.6</ele><time>2026-04-23T18:37:46.999Z</time></trkpt><trkpt lat="43.59653892750181" lon="11.362143968379558"><ele>517.2</ele><time>2026-04-23T18:37:47.999Z</time></trkpt><trkpt lat="43.59644665143652" lon="11.362105875635516"><ele>512.8</ele><time>2026-04-23T18:37:48.999Z</time></trkpt><trkpt lat="43.59634952878448" lon="11.362100036408101"><ele>508.4</ele><time>2026-04-23T18:37:49.999Z</time></trkpt><trkpt lat="43.59624170841856" lon="11.362115663713753"><ele>504.0</ele><time>2026-04-23T18:37:50.999Z</time></trkpt><trkpt lat="43.59613734994006" lon="11.362139893628818"><ele>503.4</ele><time>2026-04-23T18:37:51.999Z</time></trkpt><trkpt lat="43.59603338113286" lon="11.362178891194098"><ele>502.79999999999995</ele><time>2026-04-23T18:37:52.999Z</time></trkpt><trkpt lat="43.59592974734933" lon="11.362237263579683"><ele>502.20000000000005</ele><time>2026-04-23T18:37:53.999Z</time></trkpt><trkpt lat="43.595838320579695" lon="11.362312661209865"><ele>501.6</ele><time>2026-04-23T18:37:54.999Z</time></trkpt><trkpt lat="43.59575186206319" lon="11.362390817469636"><ele>501.0</ele><time>2026-04-23T18:37:55.999Z</time></trkpt><trkpt lat="43.5956628002908" lon="11.362467692439845"><ele>502.0</ele><time>2026-04-23T18:37:56.999Z</time></trkpt><trkpt lat="43.59557448994198" lon="11.362537564713172"><ele>503.0</ele><time>2026-04-23T18:37:57.999Z</time></trkpt><trkpt lat="43.595487118188146" lon="11.36261058418772"><ele>504.0</ele><time>2026-04-23T18:37:58.999Z</time></trkpt><trkpt lat="43.59540025714822" lon="11.362682523796137"><ele>505.0</ele><time>2026-04-23T18:37:59.999Z</time></trkpt><trkpt lat="43.59530966862748" lon="11.362749415456715"><ele>506.0</ele><time>2026-04-23T18:38:00.999Z</time></trkpt><trkpt lat="43.59521123672851" lon="11.362803844217586"><ele>506.0</ele><time>2026-04-23T18:38:01.999Z</time></trkpt><trkpt lat="43.595113979422585" lon="11.36285605435117"><ele>506.0</ele><time>2026-04-23T18:38:02.999Z</time></trkpt><trkpt lat="43.595019818448854" lon="11.362905566383537"><ele>506.0</ele><time>2026-04-23T18:38:03.999Z</time></trkpt><trkpt lat="43.59492825037844" lon="11.362969177695557"><ele>506.0</ele><time>2026-04-23T18:38:04.999Z</time></trkpt><trkpt lat="43.59484558519396" lon="11.36305439577596"><ele>506.0</ele><time>2026-04-23T18:38:05.999Z</time></trkpt><trkpt lat="43.59477283540744" lon="11.36315271363011"><ele>508.8</ele><time>2026-04-23T18:38:07Z</time></trkpt><trkpt lat="43.594696498090364" lon="11.363249446104241"><ele>511.6</ele><time>2026-04-23T18:38:08Z</time></trkpt><trkpt lat="43.59460864822928" lon="11.3633190083699"><ele>514.4</ele><time>2026-04-23T18:38:09Z</time></trkpt><trkpt lat="43.594525720086025" lon="11.363401737601475"><ele>517.2</ele><time>2026-04-23T18:38:10Z</time></trkpt><trkpt lat="43.594429298508366" lon="11.363452018940913"><ele>520.0</ele><time>2026-04-23T18:38:11Z</time></trkpt><trkpt lat="43.59433083825695" lon="11.363485622256517"><ele>520.0</ele><time>2026-04-23T18:38:12Z</time></trkpt><trkpt lat="43.594236736585145" lon="11.363493907252392"><ele>520.0</ele><time>2026-04-23T18:38:13Z</time></trkpt><trkpt lat="43.59414022363202" lon="11.363470319371936"><ele>520.0</ele><time>2026-04-23T18:38:14Z</time></trkpt><trkpt lat="43.59404528033428" lon="11.363430847274946"><ele>520.0</ele><time>2026-04-23T18:38:15Z</time></trkpt><trkpt lat="43.59395182348727" lon="11.363385108928119"><ele>520.0</ele><time>2026-04-23T18:38:16Z</time></trkpt><trkpt lat="43.59385968875136" lon="11.36333743332056"><ele>520.0</ele><time>2026-04-23T18:38:17Z</time></trkpt><trkpt lat="43.593769974530154" lon="11.363290575158821"><ele>520.0</ele><time>2026-04-23T18:38:18Z</time></trkpt><trkpt lat="43.593676973868654" lon="11.363250260360434"><ele>520.0</ele><time>2026-04-23T18:38:19Z</time></trkpt><trkpt lat="43.59359119624474" lon="11.363212047721733"><ele>520.0</ele><time>2026-04-23T18:38:20Z</time></trkpt><trkpt lat="43.59349825575723" lon="11.363199408556522"><ele>520.0</ele><time>2026-04-23T18:38:21Z</time></trkpt><trkpt lat="43.59340569950073" lon="11.363194661161245"><ele>521.4</ele><time>2026-04-23T18:38:22Z</time></trkpt><trkpt lat="43.59330894236861" lon="11.363203803289386"><ele>522.8</ele><time>2026-04-23T18:38:23Z</time></trkpt><trkpt lat="43.593207996905214" lon="11.36322491121245"><ele>524.2</ele><time>2026-04-23T18:38:24Z</time></trkpt><trkpt lat="43.59309843916404" lon="11.363256924374658"><ele>525.6</ele><time>2026-04-23T18:38:25Z</time></trkpt><trkpt lat="43.59299402809343" lon="11.363279481810226"><ele>527.0</ele><time>2026-04-23T18:38:26Z</time></trkpt><trkpt lat="43.592892635595085" lon="11.36329341802542"><ele>528.3333333333333</ele><time>2026-04-23T18:38:27Z</time></trkpt><trkpt lat="43.59279008218398" lon="11.363301437441695"><ele>529.6666666666666</ele><time>2026-04-23T18:38:28Z</time></trkpt><trkpt lat="43.59270135282386" lon="11.363306356090266"><ele>531.0</ele><time>2026-04-23T18:38:29Z</time></trkpt><trkpt lat="43.59262288752811" lon="11.363290357705747"><ele>532.3333333333334</ele><time>2026-04-23T18:38:30Z</time></trkpt><trkpt lat="43.59254995808127" lon="11.363245037171126"><ele>533.6666666666667</ele><time>2026-04-23T18:38:31Z</time></trkpt><trkpt lat="43.59249366740953" lon="11.363162225163904"><ele>535.0</ele><time>2026-04-23T18:38:32Z</time></trkpt><trkpt lat="43.592457633303844" lon="11.363053423302308"><ele>534.4</ele><time>2026-04-23T18:38:33Z</time></trkpt><trkpt lat="43.59245659207987" lon="11.362923421779326"><ele>533.8</ele><time>2026-04-23T18:38:34Z</time></trkpt><trkpt lat="43.59248059262233" lon="11.362784682975233"><ele>533.2</ele><time>2026-04-23T18:38:35Z</time></trkpt><trkpt lat="43.59252038575126" lon="11.362642226341013"><ele>532.6</ele><time>2026-04-23T18:38:36Z</time></trkpt><trkpt lat="43.592568343819195" lon="11.362486627217903"><ele>532.0</ele><time>2026-04-23T18:38:37Z</time></trkpt><trkpt lat="43.59262565112114" lon="11.362326387920707"><ele>532.0</ele><time>2026-04-23T18:38:38Z</time></trkpt><trkpt lat="43.59268231726657" lon="11.362187976976324"><ele>532.0</ele><time>2026-04-23T18:38:39Z</time></trkpt><trkpt lat="43.59273998212421" lon="11.362065376174634"><ele>532.0</ele><time>2026-04-23T18:38:40Z</time></trkpt><trkpt lat="43.59278681659135" lon="11.361944223995831"><ele>532.0</ele><time>2026-04-23T18:38:41Z</time></trkpt><trkpt lat="43.59283809940163" lon="11.361817047944205"><ele>532.0</ele><time>2026-04-23T18:38:42Z</time></trkpt><trkpt lat="43.592880667052015" lon="11.361688002063117"><ele>523.8000000000001</ele><time>2026-04-23T18:38:43Z</time></trkpt><trkpt lat="43.592914141289356" lon="11.361537972246275"><ele>515.6</ele><time>2026-04-23T18:38:44Z</time></trkpt><trkpt lat="43.59293195406292" lon="11.361387187253605"><ele>507.40000000000003</ele><time>2026-04-23T18:38:45Z</time></trkpt><trkpt lat="43.5929377301" lon="11.36124404362242"><ele>499.20000000000005</ele><time>2026-04-23T18:38:46Z</time></trkpt><trkpt lat="43.59292346293862" lon="11.361107009322579"><ele>491.0</ele><time>2026-04-23T18:38:47Z</time></trkpt><trkpt lat="43.59288807191872" lon="11.360980999449152"><ele>497.0</ele><time>2026-04-23T18:38:48Z</time></trkpt><trkpt lat="43.592830181914415" lon="11.360867640495679"><ele>503.0</ele><time>2026-04-23T18:38:49Z</time></trkpt><trkpt lat="43.59275005331739" lon="11.36077698345114"><ele>509.0</ele><time>2026-04-23T18:38:50Z</time></trkpt><trkpt lat="43.592653012341415" lon="11.360731837253317"><ele>515.0</ele><time>2026-04-23T18:38:51Z</time></trkpt><trkpt lat="43.59256087062438" lon="11.360694680252523"><ele>521.0</ele><time>2026-04-23T18:38:52Z</time></trkpt><trkpt lat="43.592480218642756" lon="11.360639057923287"><ele>521.0</ele><time>2026-04-23T18:38:53Z</time></trkpt><trkpt lat="43.592414180977634" lon="11.360546458689658"><ele>521.0</ele><time>2026-04-23T18:38:54Z</time></trkpt><trkpt lat="43.5923727564782" lon="11.360415322345403"><ele>521.0</ele><time>2026-04-23T18:38:55Z</time></trkpt><trkpt lat="43.59237114263878" lon="11.36027591945678"><ele>521.0</ele><time>2026-04-23T18:38:56Z</time></trkpt><trkpt lat="43.59240603808226" lon="11.360133984561086"><ele>521.0</ele><time>2026-04-23T18:38:57Z</time></trkpt><trkpt lat="43.592420844655635" lon="11.359983262889363"><ele>518.4</ele><time>2026-04-23T18:38:58Z</time></trkpt><trkpt lat="43.5924443615317" lon="11.359831237257312"><ele>515.8</ele><time>2026-04-23T18:38:59Z</time></trkpt><trkpt lat="43.59246365733219" lon="11.359687512206735"><ele>513.1999999999999</ele><time>2026-04-23T18:39:00Z</time></trkpt><trkpt lat="43.59248501589326" lon="11.359552237606783"><ele>510.59999999999997</ele><time>2026-04-23T18:39:01Z</time></trkpt><trkpt lat="43.592514796259785" lon="11.35942582869457"><ele>508.0</ele><time>2026-04-23T18:39:02Z</time></trkpt><trkpt lat="43.592557685695446" lon="11.359310808065517"><ele>507.83333333333337</ele><time>2026-04-23T18:39:03Z</time></trkpt><trkpt lat="43.592615581647046" lon="11.359213075984075"><ele>507.6666666666667</ele><time>2026-04-23T18:39:04Z</time></trkpt><trkpt lat="43.592679714725456" lon="11.359121701160014"><ele>507.5</ele><time>2026-04-23T18:39:05Z</time></trkpt><trkpt lat="43.59273078967144" lon="11.359034207003337"><ele>507.33333333333337</ele><time>2026-04-23T18:39:06Z</time></trkpt><trkpt lat="43.592764729978" lon="11.358919108660357"><ele>507.1666666666667</ele><time>2026-04-23T18:39:06.999Z</time></trkpt><trkpt lat="43.5927598863431" lon="11.35879158695508"><ele>507.0</ele><time>2026-04-23T18:39:07.999Z</time></trkpt><trkpt lat="43.59272123785427" lon="11.358669826755413"><ele>506.20000000000005</ele><time>2026-04-23T18:39:08.999Z</time></trkpt><trkpt lat="43.59266154488675" lon="11.358566384436669"><ele>505.40000000000003</ele><time>2026-04-23T18:39:09.999Z</time></trkpt><trkpt lat="43.5925949678892" lon="11.358464128672487"><ele>504.59999999999997</ele><time>2026-04-23T18:39:10.999Z</time></trkpt><trkpt lat="43.59253867446145" lon="11.358347277223894"><ele>503.79999999999995</ele><time>2026-04-23T18:39:11.999Z</time></trkpt><trkpt lat="43.592494872361456" lon="11.358213395156106"><ele>503.0</ele><time>2026-04-23T18:39:12.999Z</time></trkpt><trkpt lat="43.59246242449918" lon="11.358081235999235"><ele>499.4</ele><time>2026-04-23T18:39:13.999Z</time></trkpt><trkpt lat="43.59243271592614" lon="11.357962720971669"><ele>495.79999999999995</ele><time>2026-04-23T18:39:14.999Z</time></trkpt><trkpt lat="43.59239889477915" lon="11.35784710256488"><ele>492.2</ele><time>2026-04-23T18:39:15.999Z</time></trkpt><trkpt lat="43.592374352408704" lon="11.357713770874945"><ele>488.6</ele><time>2026-04-23T18:39:16.999Z</time></trkpt><trkpt lat="43.59235678003463" lon="11.357581771686526"><ele>485.0</ele><time>2026-04-23T18:39:17.999Z</time></trkpt><trkpt lat="43.592338060204696" lon="11.357455418999955"><ele>485.0</ele><time>2026-04-23T18:39:18.999Z</time></trkpt><trkpt lat="43.59232111670368" lon="11.357323000477967"><ele>485.0</ele><time>2026-04-23T18:39:19.999Z</time></trkpt><trkpt lat="43.59229882410596" lon="11.357191466284265"><ele>485.0</ele><time>2026-04-23T18:39:20.999Z</time></trkpt><trkpt lat="43.59228028089526" lon="11.357061764836157"><ele>485.0</ele><time>2026-04-23T18:39:21.999Z</time></trkpt><trkpt lat="43.592261934709086" lon="11.356923550542989"><ele>485.0</ele><time>2026-04-23T18:39:22.999Z</time></trkpt><trkpt lat="43.59224078468459" lon="11.3567852504309"><ele>483.0</ele><time>2026-04-23T18:39:23.999Z</time></trkpt><trkpt lat="43.59221358772192" lon="11.356653873590092"><ele>481.0</ele><time>2026-04-23T18:39:24.999Z</time></trkpt><trkpt lat="43.59216602173745" lon="11.356541425765547"><ele>479.0</ele><time>2026-04-23T18:39:25.999Z</time></trkpt><trkpt lat="43.59210088458623" lon="11.35644994229265"><ele>477.0</ele><time>2026-04-23T18:39:26.999Z</time></trkpt><trkpt lat="43.592020349551255" lon="11.356373609401036"><ele>475.0</ele><time>2026-04-23T18:39:27.999Z</time></trkpt><trkpt lat="43.59192606773951" lon="11.356311129227306"><ele>475.0</ele><time>2026-04-23T18:39:28.999Z</time></trkpt><trkpt lat="43.59182632881363" lon="11.356252093111115"><ele>475.0</ele><time>2026-04-23T18:39:29.999Z</time></trkpt><trkpt lat="43.59174511942373" lon="11.356169989463611"><ele>475.0</ele><time>2026-04-23T18:39:30.999Z</time></trkpt><trkpt lat="43.591673973927605" lon="11.356072008560174"><ele>475.0</ele><time>2026-04-23T18:39:31.999Z</time></trkpt><trkpt lat="43.59161867257921" lon="11.355971075611407"><ele>475.0</ele><time>2026-04-23T18:39:32.999Z</time></trkpt><trkpt lat="43.59156703901347" lon="11.355870893548067"><ele>475.0</ele><time>2026-04-23T18:39:33.999Z</time></trkpt><trkpt lat="43.591508657675476" lon="11.355787517474036"><ele>475.0</ele><time>2026-04-23T18:39:34.999Z</time></trkpt><trkpt lat="43.591447046530945" lon="11.355710504106726"><ele>475.0</ele><time>2026-04-23T18:39:35.999Z</time></trkpt><trkpt lat="43.591353243856" lon="11.355721597586056"><ele>475.0</ele><time>2026-04-23T18:39:36.999Z</time></trkpt><trkpt lat="43.5912639536199" lon="11.355739146465694"><ele>475.0</ele><time>2026-04-23T18:39:37.999Z</time></trkpt><trkpt lat="43.59116926616225" lon="11.355775932161475"><ele>475.6</ele><time>2026-04-23T18:39:38.999Z</time></trkpt><trkpt lat="43.59107104138108" lon="11.355799519572397"><ele>476.2</ele><time>2026-04-23T18:39:39.999Z</time></trkpt><trkpt lat="43.590976870624495" lon="11.355792906621721"><ele>476.79999999999995</ele><time>2026-04-23T18:39:40.999Z</time></trkpt><trkpt lat="43.5908912329161" lon="11.355753456165164"><ele>477.4</ele><time>2026-04-23T18:39:41.999Z</time></trkpt><trkpt lat="43.59081552874578" lon="11.355679930094556"><ele>478.0</ele><time>2026-04-23T18:39:42.999Z</time></trkpt><trkpt lat="43.59077097603351" lon="11.355576549891538"><ele>478.2</ele><time>2026-04-23T18:39:43.999Z</time></trkpt><trkpt lat="43.59074212579672" lon="11.35546165295501"><ele>478.4</ele><time>2026-04-23T18:39:44.999Z</time></trkpt><trkpt lat="43.59075313621698" lon="11.355338596469686"><ele>478.59999999999997</ele><time>2026-04-23T18:39:45.999Z</time></trkpt><trkpt lat="43.590802494104764" lon="11.355226497309568"><ele>478.79999999999995</ele><time>2026-04-23T18:39:46.999Z</time></trkpt><trkpt lat="43.59087119574445" lon="11.355123967964241"><ele>479.0</ele><time>2026-04-23T18:39:47.999Z</time></trkpt><trkpt lat="43.590956025638874" lon="11.355050142263694"><ele>479.0</ele><time>2026-04-23T18:39:48.999Z</time></trkpt><trkpt lat="43.591049105356525" lon="11.355004428686655"><ele>479.0</ele><time>2026-04-23T18:39:49.999Z</time></trkpt><trkpt lat="43.59114817929072" lon="11.3549547723174"><ele>479.0</ele><time>2026-04-23T18:39:50.999Z</time></trkpt><trkpt lat="43.59124477191713" lon="11.354896311700392"><ele>479.0</ele><time>2026-04-23T18:39:51.999Z</time></trkpt><trkpt lat="43.591346006968806" lon="11.354854235011945"><ele>479.0</ele><time>2026-04-23T18:39:52.999Z</time></trkpt><trkpt lat="43.59144572500219" lon="11.354811896898878"><ele>480.0</ele><time>2026-04-23T18:39:53.999Z</time></trkpt><trkpt lat="43.59153345636319" lon="11.354741436484728"><ele>481.0</ele><time>2026-04-23T18:39:54.999Z</time></trkpt><trkpt lat="43.591622405323356" lon="11.354667048822497"><ele>482.0</ele><time>2026-04-23T18:39:55.999Z</time></trkpt><trkpt lat="43.59170624831743" lon="11.354585796622287"><ele>483.0</ele><time>2026-04-23T18:39:56.999Z</time></trkpt><trkpt lat="43.59178650272964" lon="11.35450467355943"><ele>484.0</ele><time>2026-04-23T18:39:57.999Z</time></trkpt><trkpt lat="43.59187818390423" lon="11.354426269269402"><ele>484.0</ele><time>2026-04-23T18:39:58.999Z</time></trkpt><trkpt lat="43.591969889881575" lon="11.354358936116906"><ele>484.0</ele><time>2026-04-23T18:39:59.999Z</time></trkpt><trkpt lat="43.59206377568933" lon="11.354314593561604"><ele>484.0</ele><time>2026-04-23T18:40:00.999Z</time></trkpt><trkpt lat="43.59216161827988" lon="11.354293718344628"><ele>484.0</ele><time>2026-04-23T18:40:01.999Z</time></trkpt><trkpt lat="43.59226085473012" lon="11.354261246420156"><ele>484.0</ele><time>2026-04-23T18:40:02.999Z</time></trkpt><trkpt lat="43.59235136605014" lon="11.354179915703694"><ele>481.2</ele><time>2026-04-23T18:40:03.999Z</time></trkpt><trkpt lat="43.592424211998214" lon="11.354062330619607"><ele>478.4</ele><time>2026-04-23T18:40:04.999Z</time></trkpt><trkpt lat="43.592494772695446" lon="11.353947247057908"><ele>475.6</ele><time>2026-04-23T18:40:05.999Z</time></trkpt><trkpt lat="43.592568930647744" lon="11.353839784100966"><ele>472.8</ele><time>2026-04-23T18:40:06.999Z</time></trkpt><trkpt lat="43.59264753408977" lon="11.353740927308035"><ele>470.0</ele><time>2026-04-23T18:40:07.999Z</time></trkpt><trkpt lat="43.59272827487571" lon="11.353645574549866"><ele>470.0</ele><time>2026-04-23T18:40:08.999Z</time></trkpt><trkpt lat="43.592804353234534" lon="11.353541944411573"><ele>470.0</ele><time>2026-04-23T18:40:09.999Z</time></trkpt><trkpt lat="43.592871460358715" lon="11.353433852077096"><ele>470.0</ele><time>2026-04-23T18:40:10.999Z</time></trkpt><trkpt lat="43.59291835286027" lon="11.353316772965096"><ele>470.0</ele><time>2026-04-23T18:40:11.999Z</time></trkpt><trkpt lat="43.59295014695177" lon="11.353192725888944"><ele>470.0</ele><time>2026-04-23T18:40:13Z</time></trkpt><trkpt lat="43.59296870643319" lon="11.353055450336388"><ele>468.8</ele><time>2026-04-23T18:40:14Z</time></trkpt><trkpt lat="43.592989888056316" lon="11.352921170615417"><ele>467.6</ele><time>2026-04-23T18:40:15Z</time></trkpt><trkpt lat="43.59301927459354" lon="11.352788153923255"><ele>466.4</ele><time>2026-04-23T18:40:16Z</time></trkpt><trkpt lat="43.59306618097791" lon="11.352662078981565"><ele>465.2</ele><time>2026-04-23T18:40:17Z</time></trkpt><trkpt lat="43.59314714827217" lon="11.352565253956513"><ele>464.0</ele><time>2026-04-23T18:40:18Z</time></trkpt><trkpt lat="43.593203040937674" lon="11.35244056050598"><ele>464.0</ele><time>2026-04-23T18:40:19Z</time></trkpt><trkpt lat="43.59327240924289" lon="11.35233863984457"><ele>464.0</ele><time>2026-04-23T18:40:20Z</time></trkpt><trkpt lat="43.593337906335485" lon="11.352230192166186"><ele>464.0</ele><time>2026-04-23T18:40:21Z</time></trkpt><trkpt lat="43.593398617077476" lon="11.352116922545298"><ele>464.0</ele><time>2026-04-23T18:40:22Z</time></trkpt><trkpt lat="43.5934562425924" lon="11.351989484529085"><ele>464.0</ele><time>2026-04-23T18:40:23Z</time></trkpt><trkpt lat="43.59351076952906" lon="11.35185995337882"><ele>465.79999999999995</ele><time>2026-04-23T18:40:24Z</time></trkpt><trkpt lat="43.59355297663469" lon="11.35172954229399"><ele>467.59999999999997</ele><time>2026-04-23T18:40:25Z</time></trkpt><trkpt lat="43.59359379646277" lon="11.35160018379127"><ele>469.4</ele><time>2026-04-23T18:40:26Z</time></trkpt><trkpt lat="43.59362575957476" lon="11.351466250996326"><ele>471.2</ele><time>2026-04-23T18:40:27Z</time></trkpt><trkpt lat="43.59365096500252" lon="11.351326258294877"><ele>473.0</ele><time>2026-04-23T18:40:28Z</time></trkpt><trkpt lat="43.593668906403344" lon="11.351193043913893"><ele>473.0</ele><time>2026-04-23T18:40:29Z</time></trkpt><trkpt lat="43.5936778882319" lon="11.351051774658162"><ele>472.99999999999994</ele><time>2026-04-23T18:40:30Z</time></trkpt><trkpt lat="43.59367605231318" lon="11.350906445300414"><ele>472.99999999999994</ele><time>2026-04-23T18:40:31Z</time></trkpt><trkpt lat="43.593650806024094" lon="11.350765582938184"><ele>473.0</ele><time>2026-04-23T18:40:32Z</time></trkpt><trkpt lat="43.593595400096355" lon="11.350621980524727"><ele>473.0</ele><time>2026-04-23T18:40:33Z</time></trkpt><trkpt lat="43.59352600673372" lon="11.35047839584783"><ele>471.4</ele><time>2026-04-23T18:40:34Z</time></trkpt><trkpt lat="43.59346216257118" lon="11.350336546366943"><ele>469.79999999999995</ele><time>2026-04-23T18:40:35Z</time></trkpt><trkpt lat="43.5934134608004" lon="11.350197273072192"><ele>468.2</ele><time>2026-04-23T18:40:36Z</time></trkpt><trkpt lat="43.5933835728589" lon="11.350056800170933"><ele>466.6</ele><time>2026-04-23T18:40:37Z</time></trkpt><trkpt lat="43.59336075647703" lon="11.349918320423683"><ele>465.0</ele><time>2026-04-23T18:40:38Z</time></trkpt><trkpt lat="43.5933524634519" lon="11.349772007340206"><ele>463.2</ele><time>2026-04-23T18:40:39Z</time></trkpt><trkpt lat="43.593361847696904" lon="11.349618773634255"><ele>461.4</ele><time>2026-04-23T18:40:40Z</time></trkpt><trkpt lat="43.59339240230785" lon="11.349476281862884"><ele>459.6</ele><time>2026-04-23T18:40:41Z</time></trkpt><trkpt lat="43.59343617830603" lon="11.349345228793341"><ele>457.8</ele><time>2026-04-23T18:40:42Z</time></trkpt><trkpt lat="43.59347544369476" lon="11.349224660299358"><ele>456.0</ele><time>2026-04-23T18:40:43Z</time></trkpt><trkpt lat="43.59349563983576" lon="11.349096899802099"><ele>456.0</ele><time>2026-04-23T18:40:44Z</time></trkpt><trkpt lat="43.593487948536804" lon="11.34896485512731"><ele>456.0</ele><time>2026-04-23T18:40:45Z</time></trkpt><trkpt lat="43.593451215896984" lon="11.34882986712583"><ele>456.0</ele><time>2026-04-23T18:40:46Z</time></trkpt><trkpt lat="43.59339999726476" lon="11.348704102841877"><ele>456.0</ele><time>2026-04-23T18:40:47Z</time></trkpt><trkpt lat="43.59334536523737" lon="11.348570587514475"><ele>456.0</ele><time>2026-04-23T18:40:48Z</time></trkpt><trkpt lat="43.59328622194094" lon="11.348431634035954"><ele>453.6</ele><time>2026-04-23T18:40:49Z</time></trkpt><trkpt lat="43.59323087779724" lon="11.348294400579706"><ele>451.20000000000005</ele><time>2026-04-23T18:40:50Z</time></trkpt><trkpt lat="43.5931804337635" lon="11.34816652149155"><ele>448.79999999999995</ele><time>2026-04-23T18:40:51Z</time></trkpt><trkpt lat="43.593143462122306" lon="11.348034364899801"><ele>446.4</ele><time>2026-04-23T18:40:52Z</time></trkpt><trkpt lat="43.59313198530115" lon="11.347892976581798"><ele>444.0</ele><time>2026-04-23T18:40:53Z</time></trkpt><trkpt lat="43.59316824935668" lon="11.347760146876043"><ele>442.79999999999995</ele><time>2026-04-23T18:40:54Z</time></trkpt><trkpt lat="43.593182477322884" lon="11.347620541272502"><ele>441.59999999999997</ele><time>2026-04-23T18:40:55Z</time></trkpt><trkpt lat="43.59321556038288" lon="11.347482740970953"><ele>440.4</ele><time>2026-04-23T18:40:56Z</time></trkpt><trkpt lat="43.59323389769445" lon="11.347350459415622"><ele>439.2</ele><time>2026-04-23T18:40:57Z</time></trkpt><trkpt lat="43.593224933454685" lon="11.347220350544818"><ele>438.0</ele><time>2026-04-23T18:40:58Z</time></trkpt><trkpt lat="43.593188479765864" lon="11.347101017184125"><ele>438.59999999999997</ele><time>2026-04-23T18:40:59Z</time></trkpt><trkpt lat="43.59312936546092" lon="11.346988188298548"><ele>439.19999999999993</ele><time>2026-04-23T18:41:00Z</time></trkpt><trkpt lat="43.59305276008898" lon="11.346894799768574"><ele>439.8</ele><time>2026-04-23T18:41:01Z</time></trkpt><trkpt lat="43.5929664186419" lon="11.346810726497033"><ele>440.4</ele><time>2026-04-23T18:41:02Z</time></trkpt><trkpt lat="43.59288126028406" lon="11.346719970414187"><ele>441.0</ele><time>2026-04-23T18:41:03Z</time></trkpt><trkpt lat="43.59279356863332" lon="11.346624036228336"><ele>441.0</ele><time>2026-04-23T18:41:04Z</time></trkpt><trkpt lat="43.59270634472433" lon="11.346535433228887"><ele>441.0</ele><time>2026-04-23T18:41:05Z</time></trkpt><trkpt lat="43.5926227623552" lon="11.34645640793286"><ele>441.0</ele><time>2026-04-23T18:41:06Z</time></trkpt><trkpt lat="43.59253544880155" lon="11.346381367979525"><ele>441.0</ele><time>2026-04-23T18:41:07Z</time></trkpt><trkpt lat="43.592440915234526" lon="11.346321942476951"><ele>441.0</ele><time>2026-04-23T18:41:08Z</time></trkpt><trkpt lat="43.59234189698389" lon="11.346277457798994"><ele>438.20000000000005</ele><time>2026-04-23T18:41:08.999Z</time></trkpt><trkpt lat="43.592237025254356" lon="11.346253012234504"><ele>435.40000000000003</ele><time>2026-04-23T18:41:09.999Z</time></trkpt><trkpt lat="43.592130204026745" lon="11.346240766229297"><ele>432.6</ele><time>2026-04-23T18:41:10.999Z</time></trkpt><trkpt lat="43.59202373727525" lon="11.346243295664214"><ele>429.8</ele><time>2026-04-23T18:41:11.999Z</time></trkpt><trkpt lat="43.59192117484974" lon="11.346251224557845"><ele>427.0</ele><time>2026-04-23T18:41:12.999Z</time></trkpt><trkpt lat="43.59182259275138" lon="11.34626243400022"><ele>427.0</ele><time>2026-04-23T18:41:13.999Z</time></trkpt><trkpt lat="43.591727187822045" lon="11.346285156934329"><ele>427.00000000000006</ele><time>2026-04-23T18:41:14.999Z</time></trkpt><trkpt lat="43.59162620327844" lon="11.346297740957478"><ele>427.00000000000006</ele><time>2026-04-23T18:41:15.999Z</time></trkpt><trkpt lat="43.591525809212534" lon="11.346285399288503"><ele>427.0</ele><time>2026-04-23T18:41:16.999Z</time></trkpt><trkpt lat="43.59142542603266" lon="11.346254059735132"><ele>427.0</ele><time>2026-04-23T18:41:17.999Z</time></trkpt><trkpt lat="43.591330520526014" lon="11.346199681600927"><ele>427.0</ele><time>2026-04-23T18:41:18.999Z</time></trkpt><trkpt lat="43.59124981025269" lon="11.346101240165632"><ele>427.00000000000006</ele><time>2026-04-23T18:41:19.999Z</time></trkpt><trkpt lat="43.59118829298329" lon="11.345986604037627"><ele>427.00000000000006</ele><time>2026-04-23T18:41:20.999Z</time></trkpt><trkpt lat="43.59115164527142" lon="11.345850582212092"><ele>427.0</ele><time>2026-04-23T18:41:21.999Z</time></trkpt><trkpt lat="43.591132747143824" lon="11.345701137595336"><ele>427.0</ele><time>2026-04-23T18:41:22.999Z</time></trkpt><trkpt lat="43.59112170516643" lon="11.345537381119511"><ele>427.8</ele><time>2026-04-23T18:41:23.999Z</time></trkpt><trkpt lat="43.591117395560666" lon="11.345391594400166"><ele>428.6</ele><time>2026-04-23T18:41:24.999Z</time></trkpt><trkpt lat="43.591120441178255" lon="11.34524999218819"><ele>429.40000000000003</ele><time>2026-04-23T18:41:25.999Z</time></trkpt><trkpt lat="43.591140613838064" lon="11.34510383099134"><ele>430.20000000000005</ele><time>2026-04-23T18:41:26.999Z</time></trkpt><trkpt lat="43.59117691824552" lon="11.344960849879564"><ele>431.0</ele><time>2026-04-23T18:41:27.999Z</time></trkpt><trkpt lat="43.591223591142644" lon="11.344824097520304"><ele>429.4</ele><time>2026-04-23T18:41:28.999Z</time></trkpt><trkpt lat="43.5912728034642" lon="11.344690791593395"><ele>427.8</ele><time>2026-04-23T18:41:29.999Z</time></trkpt><trkpt lat="43.591319160497584" lon="11.344562894369787"><ele>426.2</ele><time>2026-04-23T18:41:30.999Z</time></trkpt><trkpt lat="43.59137611236968" lon="11.344426820940354"><ele>424.59999999999997</ele><time>2026-04-23T18:41:31.999Z</time></trkpt><trkpt lat="43.59142549461498" lon="11.344280884359824"><ele>423.0</ele><time>2026-04-23T18:41:32.999Z</time></trkpt><trkpt lat="43.59147956832872" lon="11.344140505337489"><ele>423.0</ele><time>2026-04-23T18:41:33.999Z</time></trkpt><trkpt lat="43.59152711960255" lon="11.344010326203767"><ele>423.0</ele><time>2026-04-23T18:41:34.999Z</time></trkpt><trkpt lat="43.59156931014948" lon="11.343883570990961"><ele>423.0</ele><time>2026-04-23T18:41:35.999Z</time></trkpt><trkpt lat="43.59160990121347" lon="11.343761922427257"><ele>423.0</ele><time>2026-04-23T18:41:36.999Z</time></trkpt><trkpt lat="43.59165861818155" lon="11.343633513822128"><ele>423.0</ele><time>2026-04-23T18:41:37.999Z</time></trkpt><trkpt lat="43.591718196107834" lon="11.343517820286726"><ele>422.79999999999995</ele><time>2026-04-23T18:41:38.999Z</time></trkpt><trkpt lat="43.59180209147628" lon="11.343418392394875"><ele>422.6</ele><time>2026-04-23T18:41:39.999Z</time></trkpt><trkpt lat="43.59189022109068" lon="11.343339984105986"><ele>422.4</ele><time>2026-04-23T18:41:40.999Z</time></trkpt><trkpt lat="43.59198760366707" lon="11.343302621323108"><ele>422.20000000000005</ele><time>2026-04-23T18:41:41.999Z</time></trkpt><trkpt lat="43.59207313826768" lon="11.343231120550385"><ele>422.0</ele><time>2026-04-23T18:41:42.999Z</time></trkpt><trkpt lat="43.592162432401125" lon="11.343181689525176"><ele>422.20000000000005</ele><time>2026-04-23T18:41:43.999Z</time></trkpt><trkpt lat="43.59224734597716" lon="11.343130975678404"><ele>422.4</ele><time>2026-04-23T18:41:44.999Z</time></trkpt><trkpt lat="43.592323084517176" lon="11.343069966921997"><ele>422.6</ele><time>2026-04-23T18:41:45.999Z</time></trkpt><trkpt lat="43.5923818424944" lon="11.342984089361515"><ele>422.79999999999995</ele><time>2026-04-23T18:41:46.999Z</time></trkpt><trkpt lat="43.59242861095457" lon="11.342869481595137"><ele>423.0</ele><time>2026-04-23T18:41:47.999Z</time></trkpt><trkpt lat="43.59242496969797" lon="11.34272630829092"><ele>423.0</ele><time>2026-04-23T18:41:48.999Z</time></trkpt><trkpt lat="43.5924447811767" lon="11.342588351325016"><ele>423.0</ele><time>2026-04-23T18:41:49.999Z</time></trkpt><trkpt lat="43.592495430361566" lon="11.34248284373272"><ele>423.0</ele><time>2026-04-23T18:41:50.999Z</time></trkpt><trkpt lat="43.5925806952161" lon="11.34240496317886"><ele>423.0</ele><time>2026-04-23T18:41:51.999Z</time></trkpt><trkpt lat="43.59268452238722" lon="11.342405919661362"><ele>423.0</ele><time>2026-04-23T18:41:52.999Z</time></trkpt><trkpt lat="43.59278989735577" lon="11.342395455093257"><ele>421.4</ele><time>2026-04-23T18:41:53.999Z</time></trkpt><trkpt lat="43.592891149524014" lon="11.342357056234233"><ele>419.79999999999995</ele><time>2026-04-23T18:41:54.999Z</time></trkpt><trkpt lat="43.59297687425381" lon="11.342257584908868"><ele>418.2</ele><time>2026-04-23T18:41:55.999Z</time></trkpt><trkpt lat="43.593059016150015" lon="11.342170831271638"><ele>416.6</ele><time>2026-04-23T18:41:56.999Z</time></trkpt><trkpt lat="43.59314776674855" lon="11.342095957048791"><ele>415.0</ele><time>2026-04-23T18:41:57.999Z</time></trkpt><trkpt lat="43.59323833658362" lon="11.342028482322934"><ele>415.0</ele><time>2026-04-23T18:41:58.999Z</time></trkpt><trkpt lat="43.59332357728943" lon="11.341958391752085"><ele>415.0</ele><time>2026-04-23T18:41:59.999Z</time></trkpt><trkpt lat="43.593409488212515" lon="11.341892694644962"><ele>415.0</ele><time>2026-04-23T18:42:00.999Z</time></trkpt><trkpt lat="43.59348771269059" lon="11.341833512009766"><ele>415.0</ele><time>2026-04-23T18:42:01.999Z</time></trkpt><trkpt lat="43.59355584860183" lon="11.341755856890297"><ele>415.0</ele><time>2026-04-23T18:42:02.999Z</time></trkpt><trkpt lat="43.593604952971184" lon="11.341654687248017"><ele>415.0</ele><time>2026-04-23T18:42:03.999Z</time></trkpt><trkpt lat="43.59363025206617" lon="11.341533000770056"><ele>415.0</ele><time>2026-04-23T18:42:04.999Z</time></trkpt><trkpt lat="43.59361998707146" lon="11.341403567984058"><ele>415.0</ele><time>2026-04-23T18:42:05.999Z</time></trkpt><trkpt lat="43.59358193012196" lon="11.341274628573549"><ele>415.0</ele><time>2026-04-23T18:42:06.999Z</time></trkpt><trkpt lat="43.59351076573219" lon="11.341150172517214"><ele>415.0</ele><time>2026-04-23T18:42:07.999Z</time></trkpt><trkpt lat="43.59343928369211" lon="11.341042273829924"><ele>414.0</ele><time>2026-04-23T18:42:08.999Z</time></trkpt><trkpt lat="43.593367510728065" lon="11.340949474611147"><ele>413.0</ele><time>2026-04-23T18:42:09.999Z</time></trkpt><trkpt lat="43.59329262560541" lon="11.34085297345968"><ele>412.0</ele><time>2026-04-23T18:42:10.999Z</time></trkpt><trkpt lat="43.59320374884614" lon="11.340764400850002"><ele>411.0</ele><time>2026-04-23T18:42:11.999Z</time></trkpt><trkpt lat="43.59310841166892" lon="11.340684349112708"><ele>410.0</ele><time>2026-04-23T18:42:12.999Z</time></trkpt><trkpt lat="43.593010621153596" lon="11.340614471784342"><ele>410.0</ele><time>2026-04-23T18:42:13.999Z</time></trkpt><trkpt lat="43.59291569093983" lon="11.3405430277604"><ele>410.0</ele><time>2026-04-23T18:42:14.999Z</time></trkpt><trkpt lat="43.59282859622256" lon="11.340460073238596"><ele>410.0</ele><time>2026-04-23T18:42:15.999Z</time></trkpt><trkpt lat="43.59274817672383" lon="11.340357599630105"><ele>410.0</ele><time>2026-04-23T18:42:16.999Z</time></trkpt><trkpt lat="43.59267808150558" lon="11.340239142535493"><ele>410.0</ele><time>2026-04-23T18:42:18Z</time></trkpt><trkpt lat="43.59262285700275" lon="11.340116827174635"><ele>410.0</ele><time>2026-04-23T18:42:19Z</time></trkpt><trkpt lat="43.59257598432822" lon="11.339988572913137"><ele>410.0</ele><time>2026-04-23T18:42:20Z</time></trkpt><trkpt lat="43.59253521370913" lon="11.339843081190953"><ele>410.0</ele><time>2026-04-23T18:42:21Z</time></trkpt><trkpt lat="43.592500266111585" lon="11.33968250430103"><ele>410.0</ele><time>2026-04-23T18:42:22Z</time></trkpt><trkpt lat="43.59247325106863" lon="11.339523004006194"><ele>407.8</ele><time>2026-04-23T18:42:23Z</time></trkpt><trkpt lat="43.592446810643175" lon="11.33937510321077"><ele>405.6</ele><time>2026-04-23T18:42:24Z</time></trkpt><trkpt lat="43.592418898710875" lon="11.339233462136981"><ele>403.4</ele><time>2026-04-23T18:42:25Z</time></trkpt><trkpt lat="43.59238773485813" lon="11.339093934491943"><ele>401.2</ele><time>2026-04-23T18:42:26Z</time></trkpt><trkpt lat="43.592355068396735" lon="11.338960981745632"><ele>399.0</ele><time>2026-04-23T18:42:27Z</time></trkpt><trkpt lat="43.59232069684301" lon="11.338825090664482"><ele>397.0</ele><time>2026-04-23T18:42:28Z</time></trkpt><trkpt lat="43.59229055933055" lon="11.338681816652226"><ele>395.0</ele><time>2026-04-23T18:42:29Z</time></trkpt><trkpt lat="43.59225630338489" lon="11.338531704604588"><ele>393.0</ele><time>2026-04-23T18:42:30Z</time></trkpt><trkpt lat="43.59222140538423" lon="11.338390414269908"><ele>391.0</ele><time>2026-04-23T18:42:31Z</time></trkpt><trkpt lat="43.59218879281568" lon="11.33825986758775"><ele>389.0</ele><time>2026-04-23T18:42:32Z</time></trkpt><trkpt lat="43.59215456209465" lon="11.338136149365555"><ele>389.4</ele><time>2026-04-23T18:42:33Z</time></trkpt><trkpt lat="43.592109733151354" lon="11.338020710670195"><ele>389.79999999999995</ele><time>2026-04-23T18:42:34Z</time></trkpt><trkpt lat="43.59205104579139" lon="11.33791956672313"><ele>390.20000000000005</ele><time>2026-04-23T18:42:35Z</time></trkpt><trkpt lat="43.591977148355745" lon="11.337831132890491"><ele>390.6</ele><time>2026-04-23T18:42:36Z</time></trkpt><trkpt lat="43.5918927698606" lon="11.33775513645244"><ele>391.0</ele><time>2026-04-23T18:42:37Z</time></trkpt><trkpt lat="43.59180493575005" lon="11.337674555007375"><ele>391.0</ele><time>2026-04-23T18:42:38Z</time></trkpt><trkpt lat="43.591717354221466" lon="11.337596150148691"><ele>391.0</ele><time>2026-04-23T18:42:39Z</time></trkpt><trkpt lat="43.59164313434251" lon="11.337508430320831"><ele>391.0</ele><time>2026-04-23T18:42:40Z</time></trkpt><trkpt lat="43.59157188767839" lon="11.337411537908368"><ele>391.0</ele><time>2026-04-23T18:42:41Z</time></trkpt><trkpt lat="43.591505216322346" lon="11.337294232934713"><ele>391.0</ele><time>2026-04-23T18:42:42Z</time></trkpt><trkpt lat="43.59145362057392" lon="11.33716877686253"><ele>386.8</ele><time>2026-04-23T18:42:43Z</time></trkpt><trkpt lat="43.59141833170938" lon="11.33703490331056"><ele>382.6</ele><time>2026-04-23T18:42:44Z</time></trkpt><trkpt lat="43.59140113638161" lon="11.336894707615842"><ele>378.4</ele><time>2026-04-23T18:42:45Z</time></trkpt><trkpt lat="43.59138327834934" lon="11.336751093184198"><ele>374.2</ele><time>2026-04-23T18:42:46Z</time></trkpt><trkpt lat="43.59136863481372" lon="11.33660213163527"><ele>370.0</ele><time>2026-04-23T18:42:47Z</time></trkpt><trkpt lat="43.59134737989927" lon="11.336453442937346"><ele>371.6</ele><time>2026-04-23T18:42:48Z</time></trkpt><trkpt lat="43.59131120525547" lon="11.336313700088711"><ele>373.2</ele><time>2026-04-23T18:42:49Z</time></trkpt><trkpt lat="43.59126114812982" lon="11.336183535389651"><ele>374.79999999999995</ele><time>2026-04-23T18:42:50Z</time></trkpt><trkpt lat="43.59119410754857" lon="11.336069290352038"><ele>376.4</ele><time>2026-04-23T18:42:51Z</time></trkpt><trkpt lat="43.59112160360061" lon="11.33595780156439"><ele>378.0</ele><time>2026-04-23T18:42:52Z</time></trkpt><trkpt lat="43.59104813445407" lon="11.335848746750875"><ele>378.0</ele><time>2026-04-23T18:42:53Z</time></trkpt><trkpt lat="43.590972075007" lon="11.33573922914147"><ele>378.0</ele><time>2026-04-23T18:42:54Z</time></trkpt><trkpt lat="43.590897023809966" lon="11.335639110573936"><ele>378.0</ele><time>2026-04-23T18:42:55Z</time></trkpt><trkpt lat="43.59082365350549" lon="11.335544780205876"><ele>378.0</ele><time>2026-04-23T18:42:56Z</time></trkpt><trkpt lat="43.590751664971265" lon="11.335443320661021"><ele>378.0</ele><time>2026-04-23T18:42:57Z</time></trkpt><trkpt lat="43.5906755542858" lon="11.33534599403143"><ele>377.2</ele><time>2026-04-23T18:42:58Z</time></trkpt><trkpt lat="43.59061560519085" lon="11.33523290023169"><ele>376.4</ele><time>2026-04-23T18:42:59Z</time></trkpt><trkpt lat="43.590534058752674" lon="11.335142337351696"><ele>375.59999999999997</ele><time>2026-04-23T18:43:00Z</time></trkpt><trkpt lat="43.59046029639657" lon="11.335010912501618"><ele>374.79999999999995</ele><time>2026-04-23T18:43:01Z</time></trkpt><trkpt lat="43.590370397948064" lon="11.334919070498913"><ele>374.0</ele><time>2026-04-23T18:43:02Z</time></trkpt><trkpt lat="43.59030058062368" lon="11.334835448356362"><ele>374.0</ele><time>2026-04-23T18:43:03Z</time></trkpt><trkpt lat="43.59024048578053" lon="11.334774275594391"><ele>374.0</ele><time>2026-04-23T18:43:04Z</time></trkpt><trkpt lat="43.59016436243577" lon="11.334681581727459"><ele>374.0</ele><time>2026-04-23T18:43:06Z</time></trkpt><trkpt lat="43.59019642845914" lon="11.334591509340864"><ele>374.0</ele><time>2026-04-23T18:43:09Z</time></trkpt><trkpt lat="43.5902469168853" lon="11.334681293149007"><ele>374.0</ele><time>2026-04-23T18:43:10.999Z</time></trkpt><trkpt lat="43.59031643108617" lon="11.334775214505452"><ele>374.0</ele><time>2026-04-23T18:43:12.999Z</time></trkpt><trkpt lat="43.59037336895311" lon="11.334817671382584"><ele>370.5</ele><time>2026-04-23T18:43:13.999Z</time></trkpt><trkpt lat="43.59046165926227" lon="11.334887958324394"><ele>367.0</ele><time>2026-04-23T18:43:15.999Z</time></trkpt><trkpt lat="43.5905489269946" lon="11.334959458419545"><ele>363.5</ele><time>2026-04-23T18:43:17.999Z</time></trkpt><trkpt lat="43.59061403941161" lon="11.335008364598474"><ele>360.0</ele><time>2026-04-23T18:43:19.999Z</time></trkpt><trkpt lat="43.59062773799455" lon="11.334715198446684"><ele>356.6666666666667</ele><time>2026-04-23T18:43:23.999Z</time></trkpt><trkpt lat="43.590566333088674" lon="11.334661464437293"><ele>353.3333333333333</ele><time>2026-04-23T18:43:24.999Z</time></trkpt><trkpt lat="43.590493347922056" lon="11.334603022608478"><ele>350.0</ele><time>2026-04-23T18:43:25.999Z</time></trkpt><trkpt lat="43.59044446029666" lon="11.334536239890406"><ele>346.66666666666663</ele><time>2026-04-23T18:43:26.999Z</time></trkpt><trkpt lat="43.59041955120304" lon="11.334451134966056"><ele>343.3333333333333</ele><time>2026-04-23T18:43:27.999Z</time></trkpt><trkpt lat="43.59037783557064" lon="11.334298666282558"><ele>340.0</ele><time>2026-04-23T18:43:29.999Z</time></trkpt><trkpt lat="43.590348060852335" lon="11.334127072503764"><ele>341.4</ele><time>2026-04-23T18:43:31.999Z</time></trkpt><trkpt lat="43.59032145467827" lon="11.333970682089326"><ele>342.8</ele><time>2026-04-23T18:43:33.999Z</time></trkpt><trkpt lat="43.59029090977402" lon="11.333884896264895"><ele>344.20000000000005</ele><time>2026-04-23T18:43:34.999Z</time></trkpt><trkpt lat="43.59021261336931" lon="11.333762061575975"><ele>345.6</ele><time>2026-04-23T18:43:36.999Z</time></trkpt><trkpt lat="43.59013294599221" lon="11.333655659279808"><ele>347.0</ele><time>2026-04-23T18:43:38.999Z</time></trkpt><trkpt lat="43.59008910472636" lon="11.333524871785995"><ele>347.0</ele><time>2026-04-23T18:43:40.999Z</time></trkpt><trkpt lat="43.59003959778635" lon="11.33340729532725"><ele>347.0</ele><time>2026-04-23T18:43:42.999Z</time></trkpt><trkpt lat="43.590023670108486" lon="11.333318468924716"><ele>347.0</ele><time>2026-04-23T18:43:44.999Z</time></trkpt><trkpt lat="43.59005934463282" lon="11.333435406347348"><ele>347.0</ele><time>2026-04-23T18:44:00.999Z</time></trkpt><trkpt lat="43.590111059139815" lon="11.3335738694167"><ele>347.0</ele><time>2026-04-23T18:44:02.999Z</time></trkpt><trkpt lat="43.59014562731299" lon="11.333662324759649"><ele>347.0</ele><time>2026-04-23T18:44:04.999Z</time></trkpt><trkpt lat="43.590082134761815" lon="11.333697961838043"><ele>347.0</ele><time>2026-04-23T18:44:07.999Z</time></trkpt><trkpt lat="43.59002709123934" lon="11.333647139938027"><ele>347.0</ele><time>2026-04-23T18:44:10.999Z</time></trkpt><trkpt lat="43.589972788199766" lon="11.333549056046781"><ele>347.0</ele><time>2026-04-23T18:44:13.999Z</time></trkpt><trkpt lat="43.58990969501711" lon="11.3334160244368"><ele>347.0</ele><time>2026-04-23T18:44:53Z</time></trkpt></trkseg></trk></gpx>